Provisional Data: Sugar Run near Sugar Run, PA


Please select a monitoring station.
Please select start date.
Please select start date.

Toggle Unit: C/F Toggle Unit: C/F
Sample Time Temperature (C) Temperature (F) Specific Conductivity (mS/cm) pH   Turbidity (NTU+) DO (mg/L)
8/1/2022 12:00:00 AM 21.73 71.114 0.188 6.77 1.15 2.87
8/1/2022 12:15:00 AM 21.72 71.096 0.189 6.77 1.12 2.78
8/1/2022 12:30:00 AM 21.71 71.078 0.188 6.76 1.14 2.74
8/1/2022 12:45:00 AM 21.69 71.042 0.188 6.76 1.38 2.7
8/1/2022 1:00:00 AM 21.71 71.078 0.189 6.77 1.26 2.72
8/1/2022 1:15:00 AM 21.7 71.06 0.189 6.77 1.22 2.66
8/1/2022 1:30:00 AM 21.68 71.024 0.189 6.76 1.26 2.63
8/1/2022 1:45:00 AM 21.68 71.024 0.189 6.76 1.21 2.55
8/1/2022 2:00:00 AM 21.66 70.988 0.189 6.76 1.18 2.53
8/1/2022 2:15:00 AM 21.64 70.952 0.189 6.75 1.29 2.53
8/1/2022 2:30:00 AM 21.64 70.952 0.189 6.75 1.17 2.44
8/1/2022 2:45:00 AM 21.63 70.934 0.189 6.75 1.37 2.38
8/1/2022 3:00:00 AM 21.61 70.898 0.188 6.74 1.11 2.39
8/1/2022 3:15:00 AM 21.58 70.844 0.188 6.74 1.1 2.37
8/1/2022 3:30:00 AM 21.58 70.844 0.189 6.74 1.36 2.37
8/1/2022 3:45:00 AM 21.58 70.844 0.189 6.75 1.18 2.42
8/1/2022 4:00:00 AM 21.6 70.88 0.191 6.76 1.11 2.5
8/1/2022 4:15:00 AM 21.59 70.862 0.19 6.77 1.11 2.57
8/1/2022 4:30:00 AM 21.58 70.844 0.19 6.77 1.24 2.63
8/1/2022 4:45:00 AM 21.57 70.826 0.191 6.76 1.1 2.52
8/1/2022 5:00:00 AM 21.55 70.79 0.19 6.77 1.97 2.68
8/1/2022 5:15:00 AM 21.57 70.826 0.194 6.85 1.3 2.98
8/1/2022 5:30:00 AM 21.56 70.808 0.195 6.92 1.32 3.35
8/1/2022 5:45:00 AM 21.52 70.736 0.192 6.87 1.42 3.19
8/1/2022 6:00:00 AM 21.51 70.718 0.194 6.89 1.17 3.16
8/1/2022 6:15:00 AM 21.49 70.682 0.194 6.9 1.32 3.31
8/1/2022 6:30:00 AM 21.45 70.61 0.193 6.88 1.18 3.22
8/1/2022 6:45:00 AM 21.4 70.52 0.191 6.84 1.21 3.07
8/1/2022 7:00:00 AM 21.38 70.484 0.191 6.82 1.16 2.79
8/1/2022 7:15:00 AM 21.34 70.412 0.19 6.8 1.15 2.59
8/1/2022 7:30:00 AM 21.33 70.394 0.19 6.78 1.18 2.46
8/1/2022 7:45:00 AM 21.33 70.394 0.19 6.78 1.26 2.68
8/1/2022 8:00:00 AM 21.33 70.394 0.19 6.78 1.27 2.78
8/1/2022 8:15:00 AM 21.36 70.448 0.191 6.8 1.24 2.95
8/1/2022 8:30:00 AM 21.39 70.502 0.192 6.83 1.21 2.97
8/1/2022 8:45:00 AM 21.41 70.538 0.192 6.83 1.09 2.96
8/1/2022 9:00:00 AM 21.42 70.556 0.191 6.82 1.05 2.8
8/1/2022 9:15:00 AM 21.43 70.574 0.191 6.82 1.28 2.94
8/1/2022 9:30:00 AM 21.46 70.628 0.192 6.83 1.32 3.15
8/1/2022 9:45:00 AM 21.46 70.628 0.192 6.84 1.42 3.44
8/1/2022 10:00:00 AM 21.47 70.646 0.192 6.89 1.48 4.01
8/1/2022 10:15:00 AM 21.5 70.7 0.192 6.87 1.17 3.92
8/1/2022 10:30:00 AM 21.61 70.898 0.188 6.81 1.08 3.77
8/1/2022 10:45:00 AM 21.63 70.934 0.191 6.87 1.1 4.08
8/1/2022 11:00:00 AM 21.64 70.952 0.19 6.87 1.07 4.22
8/1/2022 11:15:00 AM 21.69 71.042 0.19 6.85 1.1 4.2
8/1/2022 11:30:00 AM 21.79 71.222 0.187 6.79 1.09 3.81
8/1/2022 11:45:00 AM 21.92 71.456 0.186 6.74 1.08 3.66
8/1/2022 12:00:00 PM 22.04 71.672 0.184 6.69 1.03 3.41
8/1/2022 12:15:00 PM 22.03 71.654 0.184 6.7 1.21 3.67
8/1/2022 12:30:00 PM 22.04 71.672 0.185 6.75 1.11 3.98
8/1/2022 12:45:00 PM 22.19 71.942 0.185 6.72 1.11 3.81
8/1/2022 1:00:00 PM 22.2 71.96 0.185 6.72 1.15 3.92
8/1/2022 1:15:00 PM 22.28 72.104 0.186 6.76 1.06 4.33
8/1/2022 1:30:00 PM 22.27 72.086 0.185 6.74 1.14 4.08
8/1/2022 1:45:00 PM 22.24 72.032 0.186 6.74 1.33 4.19
8/1/2022 2:00:00 PM 22.29 72.122 0.186 6.75 1.19 4.34
8/1/2022 2:15:00 PM 22.26 72.068 0.186 6.76 1.29 4.47
8/1/2022 2:30:00 PM 22.19 71.942 0.188 6.81 1.28 4.65
8/1/2022 2:45:00 PM 22.28 72.104 0.187 6.8 1.3 4.57
8/1/2022 3:00:00 PM 22.34 72.212 0.187 6.8 1.35 4.64
8/1/2022 3:15:00 PM 22.36 72.248 0.187 6.79 1.19 4.69
8/1/2022 3:30:00 PM 22.27 72.086 0.187 6.78 1.51 4.42
8/1/2022 3:45:00 PM 22.4 72.32 0.187 6.79 1.15 4.48
8/1/2022 4:00:00 PM 22.33 72.194 0.187 6.8 1.11 4.34
8/1/2022 4:15:00 PM 22.4 72.32 0.187 6.8 1.21 4.49
8/1/2022 4:30:00 PM 22.32 72.176 0.187 6.81 1.19 4.56
8/1/2022 4:45:00 PM 22.27 72.086 0.187 6.79 1.43 4.44
8/1/2022 5:00:00 PM 22.27 72.086 0.186 6.76 1.15 4.16
8/1/2022 5:15:00 PM 22.32 72.176 0.186 6.76 1.17 4.25
8/1/2022 5:30:00 PM 22.31 72.158 0.185 6.76 1.14 4.11
8/1/2022 5:45:00 PM 22.33 72.194 0.186 6.76 1.2 4.06
8/1/2022 6:00:00 PM 22.33 72.194 0.186 6.76 1.08 3.99
8/1/2022 6:15:00 PM 22.32 72.176 0.187 6.78 1.19 3.98
8/1/2022 6:30:00 PM 22.3 72.14 0.186 6.78 1.46 4.03
8/1/2022 6:45:00 PM 22.25 72.05 0.186 6.76 1.32 3.87
8/1/2022 7:00:00 PM 22.28 72.104 0.185 6.75 1.22 3.84
8/1/2022 7:15:00 PM 22.29 72.122 0.186 6.75 1.1 3.86
8/1/2022 7:30:00 PM 22.25 72.05 0.186 6.74 1.14 3.56
8/1/2022 7:45:00 PM 22.24 72.032 0.187 6.75 1.11 3.31
8/1/2022 8:00:00 PM 22.23 72.014 0.186 6.75 1.13 3.22
8/1/2022 8:15:00 PM 22.21 71.978 0.187 6.74 1.09 3.17
8/1/2022 8:30:00 PM 22.22 71.996 0.187 6.74 1.2 3.13
8/1/2022 8:45:00 PM 22.2 71.96 0.187 6.75 1.04 3.05
8/1/2022 9:00:00 PM 22.19 71.942 0.187 6.75 1.25 2.96
8/1/2022 9:15:00 PM 22.19 71.942 0.187 6.75 1.33 2.88
8/1/2022 9:30:00 PM 22.22 71.996 0.187 6.75 1.19 2.87
8/1/2022 9:45:00 PM 22.18 71.924 0.187 6.75 1.23 2.83
8/1/2022 10:00:00 PM 22.16 71.888 0.187 6.74 1.17 2.75
8/1/2022 10:15:00 PM 22.13 71.834 0.187 6.74 1.08 2.67
8/1/2022 10:30:00 PM 22.14 71.852 0.188 6.74 1.06 2.61
8/1/2022 10:45:00 PM 22.12 71.816 0.188 6.74 1.29 2.55
8/1/2022 11:00:00 PM 22.11 71.798 0.188 6.74 1.74 2.51
8/1/2022 11:15:00 PM 22.1 71.78 0.188 6.74 1.85 2.45
8/1/2022 11:30:00 PM 22.07 71.726 0.188 6.73 1.15 2.39
8/1/2022 11:45:00 PM 22.06 71.708 0.188 6.73 1.6 2.31
8/2/2022 12:00:00 AM 22.05 71.69 0.187 6.73 1.28 2.28
8/2/2022 12:15:00 AM 22.03 71.654 0.187 6.73 1.13 2.26
8/2/2022 12:30:00 AM 22.02 71.636 0.188 6.73 1.12 2.21
8/2/2022 12:45:00 AM 22.03 71.654 0.188 6.73 1.32 2.17
8/2/2022 1:00:00 AM 22 71.6 0.187 6.73 1.18 2.15
8/2/2022 1:15:00 AM 21.98 71.564 0.188 6.73 1.1 2.12
8/2/2022 1:30:00 AM 21.97 71.546 0.187 6.73 1.12 2.08
8/2/2022 1:45:00 AM 21.95 71.51 0.187 6.73 1.11 2.06
8/2/2022 2:00:00 AM 21.92 71.456 0.187 6.72 1.17 2.05
8/2/2022 2:15:00 AM 21.92 71.456 0.188 6.73 1.22 2.03
8/2/2022 2:30:00 AM 21.93 71.474 0.188 6.73 1.12 2.05
8/2/2022 2:45:00 AM 21.91 71.438 0.187 6.73 1.1 2.06
8/2/2022 3:00:00 AM 21.88 71.384 0.188 6.73 1.21 2.04
8/2/2022 3:15:00 AM 21.88 71.384 0.188 6.73 1.47 2.02
8/2/2022 3:30:00 AM 21.85 71.33 0.188 6.73 1.14 2.05
8/2/2022 3:45:00 AM 21.85 71.33 0.188 6.73 1.34 2.03
8/2/2022 4:00:00 AM 21.84 71.312 0.188 6.73 1.08 2.02
8/2/2022 4:15:00 AM 21.79 71.222 0.187 6.73 1.19 2.05
8/2/2022 4:30:00 AM 21.78 71.204 0.187 6.73 1.05 2.05
8/2/2022 4:45:00 AM 21.77 71.186 0.188 6.73 1.03 2.05
8/2/2022 5:00:00 AM 21.82 71.276 0.189 6.75 1.93 2.16
8/2/2022 5:15:00 AM 21.77 71.186 0.188 6.74 1.19 2.23
8/2/2022 5:30:00 AM 21.78 71.204 0.189 6.78 1.24 2.38
8/2/2022 5:45:00 AM 21.74 71.132 0.189 6.76 1.27 2.31
8/2/2022 6:00:00 AM 21.7 71.06 0.188 6.75 1.24 2.21
8/2/2022 6:15:00 AM 21.65 70.97 0.187 6.74 1.48 2.15
8/2/2022 6:30:00 AM 21.63 70.934 0.188 6.74 1.24 2.17
8/2/2022 6:45:00 AM 21.62 70.916 0.188 6.74 1.29 2.2
8/2/2022 7:00:00 AM 21.59 70.862 0.188 6.74 1.56 2.23
8/2/2022 7:15:00 AM 21.58 70.844 0.188 6.75 1.31 2.26
8/2/2022 7:30:00 AM 21.56 70.808 0.188 6.75 1.17 2.29
8/2/2022 7:45:00 AM 21.58 70.844 0.188 6.75 2.15 2.35
8/2/2022 8:00:00 AM 21.59 70.862 0.188 6.76 1.21 2.37
8/2/2022 8:15:00 AM 21.61 70.898 0.188 6.76 1.21 2.42
8/2/2022 8:30:00 AM 21.62 70.916 0.188 6.76 1.28 2.43
8/2/2022 8:45:00 AM 21.66 70.988 0.19 6.77 1.47 2.55
8/2/2022 9:00:00 AM 21.68 71.024 0.19 6.78 1.36 2.66
8/2/2022 9:15:00 AM 21.72 71.096 0.192 6.79 1.34 2.79
8/2/2022 9:30:00 AM 21.6 70.88 0.187 6.74 1.4 2.66
8/2/2022 9:45:00 AM 21.65 70.97 0.187 6.75 1.44 2.71
8/2/2022 10:00:00 AM 21.75 71.15 0.191 6.79 1.33 3.03
8/2/2022 10:15:00 AM 21.77 71.186 0.191 6.83 1.23 3.14
8/2/2022 10:30:00 AM 21.8 71.24 0.191 6.84 1.34 3.22
8/2/2022 10:45:00 AM 21.93 71.474 0.193 6.86 1.16 3.25
8/2/2022 11:00:00 AM 21.93 71.474 0.192 6.88 1.26 3.28
8/2/2022 11:15:00 AM 21.99 71.582 0.193 6.89 1.33 3.3
8/2/2022 11:30:00 AM 22.06 71.708 0.193 6.92 1.17 3.67
8/2/2022 11:45:00 AM 22.08 71.744 0.192 6.91 1.18 3.73
8/2/2022 12:00:00 PM 22.08 71.744 0.191 6.89 1.21 3.67
8/2/2022 12:15:00 PM 22.06 71.708 0.192 6.9 1.51 3.78
8/2/2022 12:30:00 PM 22.07 71.726 0.189 6.84 1.28 3.8
8/2/2022 12:45:00 PM 22.18 71.924 0.191 6.86 1.41 3.47
8/2/2022 1:00:00 PM 22.17 71.906 0.189 6.83 1.57 3.75
8/2/2022 1:15:00 PM 22.25 72.05 0.191 6.84 1.53 3.71
8/2/2022 1:30:00 PM 22.28 72.104 0.19 6.84 1.34 3.72
8/2/2022 1:45:00 PM 22.35 72.23 0.19 6.84 1.35 3.73
8/2/2022 2:00:00 PM 22.39 72.302 0.19 6.85 1.31 3.6
8/2/2022 2:15:00 PM 22.36 72.248 0.188 6.81 1.66 3.89
8/2/2022 2:30:00 PM 22.23 72.014 0.186 6.78 1.79 3.96
8/2/2022 2:45:00 PM 22.31 72.158 0.188 6.79 1.46 3.99
8/2/2022 3:00:00 PM 22.32 72.176 0.188 6.79 1.47 4.03
8/2/2022 3:15:00 PM 22.29 72.122 0.186 6.76 1.53 3.94
8/2/2022 3:30:00 PM 22.23 72.014 0.186 6.74 1.44 3.78
8/2/2022 3:45:00 PM 22.18 71.924 0.185 6.73 1.39 3.69
8/2/2022 4:00:00 PM 22.33 72.194 0.185 6.74 1.51 3.8
8/2/2022 4:15:00 PM 22.25 72.05 0.184 6.73 1.25 3.79
8/2/2022 4:30:00 PM 22.24 72.032 0.185 6.73 1.32 3.77
8/2/2022 4:45:00 PM 22.23 72.014 0.185 6.72 1.23 3.69
8/2/2022 5:00:00 PM 22.23 72.014 0.185 6.72 1.19 3.62
8/2/2022 5:15:00 PM 22.15 71.87 0.184 6.71 1.23 3.54
8/2/2022 5:30:00 PM 22.21 71.978 0.185 6.72 1.2 3.6
8/2/2022 5:45:00 PM 22.17 71.906 0.184 6.71 1.2 3.52
8/2/2022 6:00:00 PM 22.2 71.96 0.184 6.71 1.25 3.46
8/2/2022 6:15:00 PM 22.22 71.996 0.185 6.71 1.37 3.45
8/2/2022 6:30:00 PM 22.17 71.906 0.184 6.71 1.4 3.41
8/2/2022 6:45:00 PM 22.1 71.78 0.184 6.7 1.39 3.33
8/2/2022 7:00:00 PM 22.07 71.726 0.184 6.7 1.36 3.26
8/2/2022 7:15:00 PM 22.06 71.708 0.184 6.69 1.38 3.18
8/2/2022 7:30:00 PM 22.02 71.636 0.184 6.69 1.29 3.09
8/2/2022 7:45:00 PM 22.03 71.654 0.184 6.69 1.29 3.1
8/2/2022 8:00:00 PM 22 71.6 0.184 6.69 1.21 3.03
8/2/2022 8:15:00 PM 21.97 71.546 0.184 6.68 1.22 2.95
8/2/2022 8:30:00 PM 21.96 71.528 0.184 6.69 1.33 2.89
8/2/2022 8:45:00 PM 21.96 71.528 0.185 6.7 1.1 2.85
8/2/2022 9:00:00 PM 21.97 71.546 0.185 6.7 1.25 2.8
8/2/2022 9:15:00 PM 21.97 71.546 0.185 6.71 1.5 2.79
8/2/2022 9:30:00 PM 21.97 71.546 0.186 6.71 1.42 2.69
8/2/2022 9:45:00 PM 21.96 71.528 0.186 6.71 1.21 2.6
8/2/2022 10:00:00 PM 21.94 71.492 0.186 6.71 1.2 2.54
8/2/2022 10:15:00 PM 21.92 71.456 0.186 6.71 1.35 2.48
8/2/2022 10:30:00 PM 21.9 71.42 0.186 6.71 1.2 2.42
8/2/2022 10:45:00 PM 21.9 71.42 0.186 6.71 1.09 2.38
8/2/2022 11:00:00 PM 21.88 71.384 0.186 6.71 1.12 2.38
8/2/2022 11:15:00 PM 21.89 71.402 0.186 6.71 1.1 2.36
8/2/2022 11:30:00 PM 21.86 71.348 0.186 6.71 1.07 2.29
8/2/2022 11:45:00 PM 21.85 71.33 0.186 6.71 1.25 2.25
8/3/2022 12:00:00 AM 21.84 71.312 0.186 6.71 1.07 2.25
8/3/2022 12:15:00 AM 21.83 71.294 0.186 6.72 1.04 2.23
8/3/2022 12:30:00 AM 21.82 71.276 0.187 6.71 1.1 2.19
8/3/2022 12:45:00 AM 21.8 71.24 0.187 6.72 1.1 2.15
8/3/2022 1:00:00 AM 21.81 71.258 0.187 6.72 1.1 2.12
8/3/2022 1:15:00 AM 21.78 71.204 0.187 6.72 1.14 2.09
8/3/2022 1:30:00 AM 21.77 71.186 0.187 6.72 1.06 2.1
8/3/2022 1:45:00 AM 21.75 71.15 0.187 6.72 1.19 2.1
8/3/2022 2:00:00 AM 21.74 71.132 0.188 6.73 1.1 2.1
8/3/2022 2:15:00 AM 21.72 71.096 0.187 6.73 1.04 2.18
8/3/2022 2:30:00 AM 21.71 71.078 0.187 6.73 1.19 2.14
8/3/2022 2:45:00 AM 21.7 71.06 0.187 6.73 1.06 2.14
8/3/2022 3:00:00 AM 21.67 71.006 0.187 6.73 1.11 2.17
8/3/2022 3:15:00 AM 21.66 70.988 0.188 6.73 1.14 2.18
8/3/2022 3:30:00 AM 21.66 70.988 0.188 6.75 1.03 2.3
8/3/2022 3:45:00 AM 21.64 70.952 0.189 6.75 1.14 2.33
8/3/2022 4:00:00 AM 21.62 70.916 0.189 6.76 1.05 2.37
8/3/2022 4:15:00 AM 21.62 70.916 0.19 6.79 1.03 2.66
8/3/2022 4:30:00 AM 21.61 70.898 0.191 6.84 0.99 2.94
8/3/2022 4:45:00 AM 21.57 70.826 0.19 6.8 1.05 2.83
8/3/2022 5:00:00 AM 21.55 70.79 0.191 6.82 1.02 2.87
8/3/2022 5:15:00 AM 21.54 70.772 0.191 6.82 1.02 2.88
8/3/2022 5:30:00 AM 21.52 70.736 0.191 6.85 1.36 2.94
8/3/2022 5:45:00 AM 21.46 70.628 0.19 6.83 1.09 2.88
8/3/2022 6:00:00 AM 21.42 70.556 0.189 6.81 1.12 2.76
8/3/2022 6:15:00 AM 21.4 70.52 0.191 6.83 1.1 2.81
8/3/2022 6:30:00 AM 21.36 70.448 0.19 6.8 1.34 2.71
8/3/2022 6:45:00 AM 21.35 70.43 0.191 6.82 1.41 2.69
8/3/2022 7:00:00 AM 21.27 70.286 0.189 6.8 1.31 2.7
8/3/2022 7:15:00 AM 21.28 70.304 0.191 6.82 1.17 2.74
8/3/2022 7:30:00 AM 21.25 70.25 0.191 6.82 1.28 2.8
8/3/2022 7:45:00 AM 21.24 70.232 0.191 6.84 1.31 2.84
8/3/2022 8:00:00 AM 21.21 70.17799 0.191 6.83 1.26 2.89
8/3/2022 8:15:00 AM 21.21 70.17799 0.192 6.84 1.26 2.83
8/3/2022 8:30:00 AM 21.2 70.16 0.191 6.84 1.25 2.81
8/3/2022 8:45:00 AM 21.2 70.16 0.191 6.84 1.14 2.76
8/3/2022 9:00:00 AM 21.2 70.16 0.191 6.84 1.1 2.81
8/3/2022 9:15:00 AM 21.19 70.142 0.192 6.87 1.59 3.06
8/3/2022 9:30:00 AM 21.2 70.16 0.192 6.86 1.53 3.13
8/3/2022 9:45:00 AM 21.23 70.214 0.193 6.87 1.34 3.25
8/3/2022 10:00:00 AM 21.25 70.25 0.192 6.86 1.15 3.23
8/3/2022 10:15:00 AM 21.32 70.376 0.189 6.84 1 3.09
8/3/2022 10:30:00 AM 21.45 70.61 0.192 6.84 1.1 3.27
8/3/2022 10:45:00 AM 21.55 70.79 0.194 6.87 1.09 3.57
8/3/2022 11:00:00 AM 21.65 70.97 0.191 6.82 1.11 3.36
8/3/2022 11:15:00 AM 21.77 71.186 0.183 6.72 1.02 3.29
8/3/2022 11:30:00 AM 21.86 71.348 0.183 6.69 1.2 3.11
8/3/2022 11:45:00 AM 22.02 71.636 0.181 6.66 1.04 3.21
8/3/2022 12:00:00 PM 22.06 71.708 0.181 6.66 1.04 3.23
8/3/2022 12:15:00 PM 22.16 71.888 0.181 6.65 1.15 3.3
8/3/2022 12:30:00 PM 22.26 72.068 0.182 6.66 1.17 3.41
8/3/2022 12:45:00 PM 22.36 72.248 0.182 6.66 1.39 3.48
8/3/2022 1:00:00 PM 22.39 72.302 0.182 6.67 1.23 3.7
8/3/2022 1:15:00 PM 22.49 72.482 0.182 6.67 1.05 3.6
8/3/2022 1:30:00 PM 22.47 72.446 0.185 6.7 1.26 4.01
8/3/2022 1:45:00 PM 22.63 72.734 0.185 6.72 1.52 4.06
8/3/2022 2:00:00 PM 22.6 72.68 0.187 6.76 1.12 4.25
8/3/2022 2:15:00 PM 22.62 72.716 0.187 6.77 1.14 4.35
8/3/2022 2:30:00 PM 22.58 72.644 0.187 6.79 1.23 4.45
8/3/2022 2:45:00 PM 22.65 72.77 0.188 6.8 1.3 4.54
8/3/2022 3:00:00 PM 22.74 72.932 0.187 6.8 1.25 4.43
8/3/2022 3:15:00 PM 22.7 72.86 0.188 6.81 1.2 4.33
8/3/2022 3:30:00 PM 22.74 72.932 0.189 6.82 1.32 4.34
8/3/2022 3:45:00 PM 22.68 72.824 0.189 6.83 1.31 4.59
8/3/2022 4:00:00 PM 22.69 72.842 0.187 6.8 1.23 4.42
8/3/2022 4:15:00 PM 22.64 72.752 0.187 6.79 1.2 4.4
8/3/2022 4:30:00 PM 22.63 72.734 0.187 6.79 1.28 4.44
8/3/2022 4:45:00 PM 22.56 72.608 0.187 6.78 1.34 4.15
8/3/2022 5:00:00 PM 22.49 72.482 0.186 6.78 1.21 4.2
8/3/2022 5:15:00 PM 22.51 72.518 0.186 6.78 1.2 4.09
8/3/2022 5:30:00 PM 22.47 72.446 0.187 6.76 1.2 4.09
8/3/2022 5:45:00 PM 22.34 72.212 0.185 6.73 1.16 3.97
8/3/2022 6:00:00 PM 22.31 72.158 0.185 6.73 1.14 3.88
8/3/2022 6:15:00 PM 22.29 72.122 0.184 6.72 1.04 3.74
8/3/2022 6:30:00 PM 22.27 72.086 0.185 6.72 1.08 3.67
8/3/2022 6:45:00 PM 22.26 72.068 0.185 6.72 1.1 3.64
8/3/2022 7:00:00 PM 22.26 72.068 0.185 6.73 1.26 3.57
8/3/2022 7:15:00 PM 22.21 71.978 0.187 6.75 1.13 3.55
8/3/2022 7:30:00 PM 22.25 72.05 0.186 6.74 1.06 3.47
8/3/2022 7:45:00 PM 22.2 71.96 0.186 6.74 1.2 3.4
8/3/2022 8:00:00 PM 22.19 71.942 0.186 6.73 1.1 3.31
8/3/2022 8:15:00 PM 22.2 71.96 0.186 6.73 1.2 3.25
8/3/2022 8:30:00 PM 22.17 71.906 0.187 6.73 1.1 3.11
8/3/2022 8:45:00 PM 22.14 71.852 0.187 6.73 1.07 2.98
8/3/2022 9:00:00 PM 22.1 71.78 0.187 6.73 1.15 2.86
8/3/2022 9:15:00 PM 22.11 71.798 0.187 6.72 1.11 2.8
8/3/2022 9:30:00 PM 22.09 71.762 0.187 6.72 1.12 2.74
8/3/2022 9:45:00 PM 22.06 71.708 0.187 6.72 1.11 2.64
8/3/2022 10:00:00 PM 22.06 71.708 0.187 6.72 1.04 2.6
8/3/2022 10:15:00 PM 22.04 71.672 0.187 6.72 1.09 2.53
8/3/2022 10:30:00 PM 22.03 71.654 0.187 6.72 1.1 2.49
8/3/2022 10:45:00 PM 22.04 71.672 0.188 6.72 1.02 2.46
8/3/2022 11:00:00 PM 22.02 71.636 0.188 6.72 1.07 2.43
8/3/2022 11:15:00 PM 22 71.6 0.187 6.72 1.69 2.4
8/3/2022 11:30:00 PM 22 71.6 0.188 6.72 1.15 2.35
8/3/2022 11:45:00 PM 22 71.6 0.188 6.72 1.04 2.33
8/4/2022 12:00:00 AM 21.99 71.582 0.188 6.72 1.23 2.3
8/4/2022 12:15:00 AM 22 71.6 0.189 6.72 1.13 2.28
8/4/2022 12:30:00 AM 21.97 71.546 0.188 6.72 1.06 2.24
8/4/2022 12:45:00 AM 21.97 71.546 0.188 6.72 1.12 2.19
8/4/2022 1:00:00 AM 21.97 71.546 0.188 6.72 1.04 2.16
8/4/2022 1:15:00 AM 21.95 71.51 0.189 6.73 1.11 2.14
8/4/2022 1:30:00 AM 21.94 71.492 0.189 6.73 1.18 2.13
8/4/2022 1:45:00 AM 21.93 71.474 0.189 6.73 1.05 2.1
8/4/2022 2:00:00 AM 21.92 71.456 0.189 6.73 1.08 2.1
8/4/2022 2:15:00 AM 21.91 71.438 0.19 6.74 1.1 2.06
8/4/2022 2:30:00 AM 21.9 71.42 0.19 6.75 1.13 2.03
8/4/2022 2:45:00 AM 21.93 71.474 0.19 6.74 1.11 2.06
8/4/2022 3:00:00 AM 21.89 71.402 0.19 6.74 1.09 2.05
8/4/2022 3:15:00 AM 21.89 71.402 0.191 6.75 1.35 2.05
8/4/2022 3:30:00 AM 21.85 71.33 0.19 6.74 1.5 2.07
8/4/2022 3:45:00 AM 21.84 71.312 0.19 6.74 1.25 2.09
8/4/2022 4:00:00 AM 21.83 71.294 0.19 6.75 1.39 2.13
8/4/2022 4:15:00 AM 21.83 71.294 0.191 6.75 1.23 2.15
8/4/2022 4:30:00 AM 21.8 71.24 0.19 6.75 1.3 2.15
8/4/2022 4:45:00 AM 21.78 71.204 0.19 6.75 1.37 2.15
8/4/2022 5:00:00 AM 21.76 71.168 0.189 6.74 1.18 2.14
8/4/2022 5:15:00 AM 21.78 71.204 0.19 6.77 1.16 2.35
8/4/2022 5:30:00 AM 21.75 71.15 0.19 6.75 1.21 2.19
8/4/2022 5:45:00 AM 21.72 71.096 0.19 6.75 1.21 2.15
8/4/2022 6:00:00 AM 21.7 71.06 0.19 6.74 1.24 2.12
8/4/2022 6:15:00 AM 21.68 71.024 0.19 6.74 1.07 2.12
8/4/2022 6:30:00 AM 21.65 70.97 0.189 6.74 1.24 2.12
8/4/2022 6:45:00 AM 21.64 70.952 0.189 6.74 1.12 2.13
8/4/2022 7:00:00 AM 21.64 70.952 0.19 6.75 1.19 2.13
8/4/2022 7:15:00 AM 21.59 70.862 0.19 6.74 1.18 2.2
8/4/2022 7:30:00 AM 21.61 70.898 0.19 6.75 1.13 2.29
8/4/2022 7:45:00 AM 21.58 70.844 0.19 6.75 1.37 2.25
8/4/2022 8:00:00 AM 21.57 70.826 0.19 6.75 1.32 2.27
8/4/2022 8:15:00 AM 21.58 70.844 0.19 6.75 1.26 2.32
8/4/2022 8:30:00 AM 21.57 70.826 0.19 6.75 1.28 2.33
8/4/2022 8:45:00 AM 21.59 70.862 0.19 6.76 1.17 2.37
8/4/2022 9:00:00 AM 21.61 70.898 0.191 6.77 1.13 2.48
8/4/2022 9:15:00 AM 21.65 70.97 0.191 6.77 1.24 2.53
8/4/2022 9:30:00 AM 21.67 71.006 0.191 6.77 1.34 2.52
8/4/2022 9:45:00 AM 21.73 71.114 0.192 6.79 1.23 2.36
8/4/2022 10:00:00 AM 21.82 71.276 0.193 6.83 1.21 2.79
8/4/2022 10:15:00 AM 21.9 71.42 0.194 6.83 1.22 2.74
8/4/2022 10:30:00 AM 21.95 71.51 0.194 6.84 1.09 2.79
8/4/2022 10:45:00 AM 22.04 71.672 0.195 6.86 1.19 3.07
8/4/2022 11:00:00 AM 22.16 71.888 0.192 6.84 1 3.21
8/4/2022 11:15:00 AM 22.22 71.996 0.189 6.78 1.12 3.15
8/4/2022 11:30:00 AM 22.3 72.14 0.189 6.76 1.14 3.22
8/4/2022 11:45:00 AM 22.33 72.194 0.187 6.74 1.06 3.21
8/4/2022 12:00:00 PM 22.47 72.446 0.19 6.76 1.17 3.22
8/4/2022 12:15:00 PM 22.47 72.446 0.189 6.76 1.15 3.41
8/4/2022 12:30:00 PM 22.48 72.464 0.188 6.73 1.11 3.4
8/4/2022 12:45:00 PM 22.43 72.374 0.187 6.72 1.08 3.5
8/4/2022 1:00:00 PM 22.5 72.5 0.189 6.75 1.1 3.63
8/4/2022 1:15:00 PM 22.63 72.734 0.191 6.77 1.19 3.63
8/4/2022 1:30:00 PM 22.73 72.914 0.192 6.83 1.17 3.91
8/4/2022 1:45:00 PM 22.67 72.806 0.189 6.77 1.08 3.78
8/4/2022 2:00:00 PM 22.67 72.806 0.189 6.76 1.16 3.74
8/4/2022 2:15:00 PM 22.84 73.112 0.191 6.81 1.12 3.99
8/4/2022 2:30:00 PM 22.83 73.094 0.19 6.79 1.07 3.95
8/4/2022 2:45:00 PM 22.72 72.896 0.189 6.78 1.34 4.26
8/4/2022 3:00:00 PM 22.77 72.986 0.194 6.79 1.6 4.26
8/4/2022 3:15:00 PM 22.86 73.148 0.189 6.78 1.18 4.26
8/4/2022 3:30:00 PM 22.74 72.932 0.19 6.8 1.43 4.31
8/4/2022 3:45:00 PM 22.76 72.968 0.19 6.8 1.44 4.22
8/4/2022 4:00:00 PM 22.44 72.392 0.189 6.77 1.78 3.94
8/4/2022 4:15:00 PM 22.4 72.32 0.187 6.74 1.4 3.81
8/4/2022 4:30:00 PM 22.43 72.374 0.187 6.75 1.27 3.78
8/4/2022 4:45:00 PM 22.5 72.5 0.188 6.78 1.35 3.75
8/4/2022 5:00:00 PM 22.56 72.608 0.188 6.79 1.18 3.69
8/4/2022 5:15:00 PM 22.58 72.644 0.188 6.79 1.36 3.55
8/4/2022 5:30:00 PM 22.63 72.734 0.188 6.8 1.52 3.55
8/4/2022 5:45:00 PM 22.68 72.824 0.189 6.8 1.56 3.53
8/4/2022 6:00:00 PM 22.78 73.004 0.189 6.81 1.56 3.71
8/4/2022 6:15:00 PM 22.82 73.076 0.189 6.82 1.71 3.81
8/4/2022 6:30:00 PM 22.88 73.184 0.19 6.85 1.72 3.9
8/4/2022 6:45:00 PM 22.92 73.256 0.19 6.85 1.73 3.91
8/4/2022 7:00:00 PM 22.96 73.328 0.19 6.87 1.77 3.93
8/4/2022 7:15:00 PM 23 73.4 0.19 6.86 1.98 3.96
8/4/2022 7:30:00 PM 23.04 73.472 0.19 6.86 1.58 3.9
8/4/2022 7:45:00 PM 23.06 73.508 0.19 6.86 1.58 3.86
8/4/2022 8:00:00 PM 23.11 73.598 0.19 6.86 1.71 3.81
8/4/2022 8:15:00 PM 23.11 73.598 0.19 6.87 1.53 3.79
8/4/2022 8:30:00 PM 23.1 73.58 0.19 6.88 1.87 3.78
8/4/2022 8:45:00 PM 23.11 73.598 0.192 6.89 1.89 3.71
8/4/2022 9:00:00 PM 23.1 73.58 0.192 6.89 2.06 3.64
8/4/2022 9:15:00 PM 23.09 73.562 0.191 6.89 2.05 3.58
8/4/2022 9:30:00 PM 23.09 73.562 0.191 6.88 1.46 3.5
8/4/2022 9:45:00 PM 23.08 73.544 0.19 6.86 1.49 3.42
8/4/2022 10:00:00 PM 23.04 73.472 0.19 6.85 1.43 3.34
8/4/2022 10:15:00 PM 23.05 73.49 0.19 6.85 1.58 3.29
8/4/2022 10:30:00 PM 23.01 73.418 0.19 6.84 1.37 3.24
8/4/2022 10:45:00 PM 23 73.4 0.19 6.84 1.38 3.15
8/4/2022 11:00:00 PM 22.94 73.292 0.19 6.83 1.51 3.13
8/4/2022 11:15:00 PM 22.92 73.256 0.191 6.83 1.29 3.08
8/4/2022 11:30:00 PM 22.91 73.238 0.19 6.83 1.22 3.04
8/4/2022 11:45:00 PM 22.91 73.238 0.191 6.83 1.18 3.01
8/5/2022 12:00:00 AM 22.86 73.148 0.191 6.82 1.51 2.94
8/5/2022 12:15:00 AM 22.85 73.13 0.191 6.82 1.32 2.88
8/5/2022 12:30:00 AM 22.82 73.076 0.191 6.81 1.17 2.85
8/5/2022 12:45:00 AM 22.79 73.022 0.191 6.81 1.1 2.84
8/5/2022 1:00:00 AM 22.75 72.95 0.191 6.81 4.13 2.77
8/5/2022 1:15:00 AM 22.74 72.932 0.191 6.81 1.58 2.73
8/5/2022 1:30:00 AM 22.71 72.878 0.191 6.8 1.8 2.75
8/5/2022 1:45:00 AM 22.69 72.842 0.191 6.8 1.26 2.73
8/5/2022 2:00:00 AM 22.64 72.752 0.19 6.8 1.13 2.67
8/5/2022 2:15:00 AM 22.61 72.698 0.191 6.8 1.13 2.67
8/5/2022 2:30:00 AM 22.58 72.644 0.19 6.8 1.09 2.67
8/5/2022 2:45:00 AM 22.57 72.626 0.191 6.8 1.1 2.69
8/5/2022 3:00:00 AM 22.53 72.554 0.191 6.79 1.28 2.65
8/5/2022 3:15:00 AM 22.52 72.536 0.191 6.79 1.13 2.64
8/5/2022 3:30:00 AM 22.47 72.446 0.19 6.79 1.1 2.62
8/5/2022 3:45:00 AM 22.46 72.42799 0.191 6.79 1.28 2.61
8/5/2022 4:00:00 AM 22.41 72.338 0.19 6.78 1.12 2.6
8/5/2022 4:15:00 AM 22.4 72.32 0.191 6.78 1.37 2.55
8/5/2022 4:30:00 AM 22.38 72.284 0.191 6.78 1.09 2.54
8/5/2022 4:45:00 AM 22.33 72.194 0.191 6.78 1.36 2.52
8/5/2022 5:00:00 AM 22.29 72.122 0.191 6.78 1.14 2.46
8/5/2022 5:15:00 AM 22.25 72.05 0.19 6.78 1.08 2.47
8/5/2022 5:30:00 AM 22.26 72.068 0.191 6.78 1.15 2.54
8/5/2022 5:45:00 AM 22.22 71.996 0.191 6.78 1.62 2.52
8/5/2022 6:00:00 AM 22.18 71.924 0.191 6.78 1.6 2.47
8/5/2022 6:15:00 AM 22.12 71.816 0.19 6.77 1.34 2.49
8/5/2022 6:30:00 AM 22.12 71.816 0.191 6.77 1.18 2.49
8/5/2022 6:45:00 AM 22.08 71.744 0.191 6.77 1.19 2.47
8/5/2022 7:00:00 AM 22.05 71.69 0.191 6.77 1.23 2.48
8/5/2022 7:15:00 AM 22.04 71.672 0.191 6.77 1.28 2.49
8/5/2022 7:30:00 AM 22.03 71.654 0.191 6.77 1.42 2.52
8/5/2022 7:45:00 AM 22.01 71.618 0.191 6.77 1.52 2.57
8/5/2022 8:00:00 AM 22 71.6 0.191 6.77 1.18 2.59
8/5/2022 8:15:00 AM 22 71.6 0.191 6.77 1.51 2.66
8/5/2022 8:30:00 AM 22 71.6 0.191 6.77 1.29 2.68
8/5/2022 8:45:00 AM 22.04 71.672 0.191 6.77 1.44 2.75
8/5/2022 9:00:00 AM 22.12 71.816 0.192 6.8 1.62 2.81
8/5/2022 9:15:00 AM 22.14 71.852 0.193 6.8 1.43 2.87
8/5/2022 9:30:00 AM 22.1 71.78 0.191 6.79 1.37 3.06
8/5/2022 9:45:00 AM 22.18 71.924 0.193 6.82 1.52 3.19
8/5/2022 10:00:00 AM 22.24 72.032 0.194 6.84 1.36 3.02
8/5/2022 10:15:00 AM 22.25 72.05 0.194 6.85 1.47 3.14
8/5/2022 10:30:00 AM 22.28 72.104 0.194 6.86 1.44 3.16
8/5/2022 10:45:00 AM 22.29 72.122 0.193 6.86 1.44 3.26
8/5/2022 11:00:00 AM 22.34 72.212 0.194 6.87 1.41 3.46
8/5/2022 11:15:00 AM 22.38 72.284 0.194 6.88 1.41 3.31
8/5/2022 11:30:00 AM 22.46 72.42799 0.194 6.88 1.51 3.39
8/5/2022 11:45:00 AM 22.51 72.518 0.193 6.89 1.37 3.79
8/5/2022 12:00:00 PM 22.52 72.536 0.192 6.87 1.33 3.92
8/5/2022 12:15:00 PM 22.56 72.608 0.19 6.83 1.24 3.89
8/5/2022 12:30:00 PM 22.62 72.716 0.19 6.82 1.24 3.92
8/5/2022 12:45:00 PM 22.57 72.626 0.19 6.81 1.32 4.21
8/5/2022 1:00:00 PM 22.67 72.806 0.19 6.81 1.18 4.03
8/5/2022 1:15:00 PM 22.69 72.842 0.19 6.81 1.22 4.08
8/5/2022 1:30:00 PM 22.68 72.824 0.19 6.81 1.32 4.4
8/5/2022 1:45:00 PM 22.66 72.788 0.189 6.8 1.87 4.48
8/5/2022 2:00:00 PM 22.83 73.094 0.191 6.84 1.62 4.44
8/5/2022 2:15:00 PM 22.82 73.076 0.191 6.83 1.32 4.52
8/5/2022 2:30:00 PM 22.81 73.058 0.19 6.82 1.33 4.55
8/5/2022 2:45:00 PM 22.81 73.058 0.19 6.82 1.33 4.55
8/5/2022 3:00:00 PM 22.81 73.058 0.189 6.81 1.48 4.68
8/5/2022 3:15:00 PM 22.67 72.806 0.188 6.79 1.21 4.56
8/5/2022 3:30:00 PM 22.9 73.22 0.191 6.81 1.21 4.62
8/5/2022 3:45:00 PM 22.85 73.13 0.193 6.8 1.35 4.56
8/5/2022 4:00:00 PM 22.76 72.968 0.187 6.8 1.8 4.35
8/5/2022 4:15:00 PM 22.79 73.022 0.182 6.82 5.04 4.62
8/5/2022 4:30:00 PM 22.87 73.166 0.181 6.85 5.7 4.64
8/5/2022 4:45:00 PM 22.93 73.274 0.181 6.85 5.29 4.61
8/5/2022 5:00:00 PM 23.01 73.418 0.182 6.85 4.69 4.68
8/5/2022 5:15:00 PM 23.18 73.724 0.183 6.89 4.79 4.91
8/5/2022 5:30:00 PM 23.32 73.976 0.183 6.91 5.97 5.09
8/5/2022 5:45:00 PM 23.46 74.228 0.183 6.94 7.2 5.2
8/5/2022 6:00:00 PM 23.59 74.462 0.184 6.98 10.22 5.25
8/5/2022 6:15:00 PM 23.68 74.624 0.184 7.01 10.74 5.27
8/5/2022 6:30:00 PM 23.75 74.75 0.184 7.03 10.77 5.31
8/5/2022 6:45:00 PM 23.87 74.966 0.183 7.05 11.06 5.43
8/5/2022 7:00:00 PM 23.91 75.038 0.183 7.06 13.63 5.48
8/5/2022 7:15:00 PM 23.91 75.038 0.183 7.09 20.2 5.39
8/5/2022 7:30:00 PM 23.96 75.128 0.182 7.08 18.51 4.99
8/5/2022 7:45:00 PM 23.95 75.11 0.182 7.11 24.17 5.26
8/5/2022 8:00:00 PM 23.97 75.146 0.181 7.13 23.43 5.42
8/5/2022 8:15:00 PM 23.99 75.182 0.18 7.17 22.23 5.55
8/5/2022 8:30:00 PM 23.95 75.11 0.178 7.18 24.1 5.56
8/5/2022 8:45:00 PM 23.93 75.074 0.178 7.2 18.65 5.6
8/5/2022 9:00:00 PM 23.87 74.966 0.177 7.23 17.26 5.72
8/5/2022 9:15:00 PM 23.83 74.894 0.178 7.29 12.63 6.01
8/5/2022 9:30:00 PM 23.74 74.732 0.179 7.37 12.29 6.29
8/5/2022 9:45:00 PM 23.62 74.516 0.179 7.42 12.55 6.54
8/5/2022 10:00:00 PM 23.57 74.426 0.179 7.41 18.27 6.48
8/5/2022 10:15:00 PM 23.49 74.282 0.177 7.43 13.17 6.6
8/5/2022 10:30:00 PM 23.44 74.192 0.175 7.44 15.09 6.67
8/5/2022 10:45:00 PM 23.41 74.138 0.172 7.47 15.81 6.87
8/5/2022 11:00:00 PM 23.45 74.21 0.172 7.48 13.95 6.84
8/5/2022 11:15:00 PM 23.56 74.408 0.172 7.5 15 6.93
8/5/2022 11:30:00 PM 23.66 74.588 0.172 7.51 13.57 6.88
8/5/2022 11:45:00 PM 23.76 74.768 0.174 7.52 14.59 6.88
8/6/2022 12:00:00 AM 23.85 74.93 0.175 7.53 11.33 6.86
8/6/2022 12:15:00 AM 23.86 74.948 0.176 7.54 12.83 6.99
8/6/2022 12:30:00 AM 23.89 75.002 0.176 7.55 11.29 6.9
8/6/2022 12:45:00 AM 23.87 74.966 0.176 7.55 10.75 7.03
8/6/2022 1:00:00 AM 23.89 75.002 0.177 7.55 9.41 7.06
8/6/2022 1:15:00 AM 23.87 74.966 0.177 7.55 8.66 6.9
8/6/2022 1:30:00 AM 23.89 75.002 0.177 7.55 8.32 7
8/6/2022 1:45:00 AM 23.88 74.984 0.177 7.56 6.89 7.03
8/6/2022 2:00:00 AM 23.88 74.984 0.178 7.56 7 6.97
8/6/2022 2:15:00 AM 23.87 74.966 0.178 7.55 6.64 7.03
8/6/2022 2:30:00 AM 23.87 74.966 0.178 7.56 7.07 7.07
8/6/2022 2:45:00 AM 23.86 74.948 0.178 7.56 5.69 7.05
8/6/2022 3:00:00 AM 23.84 74.912 0.179 7.55 5.64 7
8/6/2022 3:15:00 AM 23.81 74.858 0.179 7.55 5.6 6.98
8/6/2022 3:30:00 AM 23.79 74.82201 0.179 7.55 6.17 7.04
8/6/2022 3:45:00 AM 23.76 74.768 0.179 7.55 5.25 7.05
8/6/2022 4:00:00 AM 23.74 74.732 0.18 7.55 5.33 7.01
8/6/2022 4:15:00 AM 23.71 74.67799 0.18 7.54 5.34 6.98
8/6/2022 4:30:00 AM 23.67 74.606 0.18 7.54 4.7 7.02
8/6/2022 4:45:00 AM 23.63 74.534 0.18 7.53 5.23 7.02
8/6/2022 5:00:00 AM 23.59 74.462 0.18 7.53 5.38 7
8/6/2022 5:15:00 AM 23.55 74.39 0.181 7.52 8.61 6.97
8/6/2022 5:30:00 AM 23.52 74.336 0.181 7.52 5.49 6.98
8/6/2022 5:45:00 AM 23.48 74.264 0.181 7.51 4.86 6.95
8/6/2022 6:00:00 AM 23.43 74.174 0.181 7.51 5.16 7
8/6/2022 6:15:00 AM 23.4 74.12 0.181 7.5 4.3 6.93
8/6/2022 6:30:00 AM 23.35 74.03 0.182 7.5 5.11 6.96
8/6/2022 6:45:00 AM 23.33 73.994 0.182 7.49 5.19 6.87
8/6/2022 7:00:00 AM 23.29 73.922 0.182 7.49 4.88 6.88
8/6/2022 7:15:00 AM 23.25 73.85 0.182 7.49 4.65 6.93
8/6/2022 7:30:00 AM 23.23 73.814 0.182 7.49 4.89 6.97
8/6/2022 7:45:00 AM 23.21 73.778 0.182 7.49 4.7 7
8/6/2022 8:00:00 AM 23.19 73.742 0.182 7.49 4.72 7.01
8/6/2022 8:15:00 AM 23.16 73.688 0.182 7.49 4.59 7.04
8/6/2022 8:30:00 AM 23.17 73.706 0.182 7.48 4.57 6.96
8/6/2022 8:45:00 AM 23.16 73.688 0.182 7.48 4.98 7.04
8/6/2022 9:00:00 AM 23.18 73.724 0.182 7.48 4.67 7.06
8/6/2022 9:15:00 AM 23.23 73.814 0.182 7.48 4.3 7.1
8/6/2022 9:30:00 AM 23.32 73.976 0.182 7.48 4.2 7.11
8/6/2022 9:45:00 AM 23.43 74.174 0.182 7.49 4.65 7.28
8/6/2022 10:00:00 AM 23.54 74.372 0.181 7.49 5.83 7.28
8/6/2022 10:15:00 AM 23.69 74.642 0.181 7.49 4.23 7.27
8/6/2022 10:30:00 AM 23.86 74.948 0.181 7.51 5.45 7.44
8/6/2022 10:45:00 AM 24.07 75.326 0.18 7.52 4.44 7.44
8/6/2022 11:00:00 AM 24.17 75.506 0.18 7.52 4.05 7.41
8/6/2022 11:15:00 AM 24.38 75.884 0.18 7.54 4.53 7.49
8/6/2022 11:30:00 AM 24.52 76.136 0.18 7.52 4.55 7.43
8/6/2022 11:45:00 AM 24.73 76.514 0.179 7.56 3.87 7.56
8/6/2022 12:00:00 PM 24.92 76.856 0.179 7.55 3.79 7.58
8/6/2022 12:15:00 PM 25.12 77.216 0.179 7.56 3.54 7.59
8/6/2022 12:30:00 PM 25.43 77.774 0.179 7.6 3.89 7.7
8/6/2022 12:45:00 PM 25.59 78.062 0.178 7.6 3.42 7.68
8/6/2022 1:00:00 PM 25.81 78.458 0.178 7.61 3.52 7.68
8/6/2022 1:15:00 PM 26.1 78.98 0.178 7.62 3.54 7.73
8/6/2022 1:30:00 PM 26.36 79.448 0.178 7.62 3.37 7.72
8/6/2022 1:45:00 PM 26.62 79.916 0.178 7.64 3.32 7.72
8/6/2022 2:00:00 PM 26.76 80.168 0.177 7.65 3.17 7.71
8/6/2022 2:15:00 PM 26.86 80.348 0.177 7.65 3.29 7.68
8/6/2022 2:30:00 PM 26.99 80.582 0.177 7.67 3.61 7.69
8/6/2022 2:45:00 PM 27.09 80.762 0.177 7.67 3.34 7.68
8/6/2022 3:00:00 PM 27.11 80.798 0.176 7.68 3.66 7.65
8/6/2022 3:15:00 PM 27.17 80.906 0.176 7.69 3.05 7.65
8/6/2022 3:30:00 PM 27.14 80.852 0.175 7.68 3.16 7.56
8/6/2022 3:45:00 PM 27.16 80.888 0.175 7.67 3.12 7.52
8/6/2022 4:00:00 PM 27.19 80.942 0.175 7.67 3.36 7.51
8/6/2022 4:15:00 PM 27.08 80.744 0.174 7.64 3.6 7.36
8/6/2022 4:30:00 PM 27.04 80.672 0.174 7.61 3.89 7.19
8/6/2022 4:45:00 PM 27.08 80.744 0.174 7.61 3.26 7.19
8/6/2022 5:00:00 PM 26.98 80.564 0.173 7.61 3.12 7.24
8/6/2022 5:15:00 PM 26.91 80.438 0.173 7.59 3.32 7.16
8/6/2022 5:30:00 PM 26.87 80.366 0.172 7.57 3.54 7
8/6/2022 5:45:00 PM 26.84 80.312 0.172 7.57 3.16 7.05
8/6/2022 6:00:00 PM 26.8 80.24 0.172 7.53 3.1 6.87
8/6/2022 6:15:00 PM 26.66 79.988 0.171 7.52 3.35 6.82
8/6/2022 6:30:00 PM 26.57 79.826 0.171 7.49 3.04 6.66
8/6/2022 6:45:00 PM 26.48 79.664 0.17 7.49 3.23 6.65
8/6/2022 7:00:00 PM 26.36 79.448 0.17 7.47 3.44 6.61
8/6/2022 7:15:00 PM 26.28 79.304 0.17 7.45 3.1 6.52
8/6/2022 7:30:00 PM 26.16 79.088 0.17 7.43 3.33 6.41
8/6/2022 7:45:00 PM 26.08 78.944 0.169 7.42 3.04 6.34
8/6/2022 8:00:00 PM 26 78.8 0.169 7.4 3.5 6.27
8/6/2022 8:15:00 PM 25.93 78.674 0.169 7.39 3.67 6.25
8/6/2022 8:30:00 PM 25.84 78.512 0.168 7.38 3.42 6.21
8/6/2022 8:45:00 PM 25.74 78.332 0.168 7.37 3.56 6.17
8/6/2022 9:00:00 PM 25.66 78.188 0.168 7.36 3.75 6.14
8/6/2022 9:15:00 PM 25.58 78.044 0.168 7.35 3.68 6.09
8/6/2022 9:30:00 PM 25.5 77.9 0.167 7.34 3.56 6.08
8/6/2022 9:45:00 PM 25.41 77.738 0.167 7.33 4 6.06
8/6/2022 10:00:00 PM 25.34 77.612 0.167 7.32 3.46 6.03
8/6/2022 10:15:00 PM 25.26 77.468 0.166 7.31 3.39 6.02
8/6/2022 10:30:00 PM 25.19 77.342 0.166 7.3 3.59 6.01
8/6/2022 10:45:00 PM 25.14 77.252 0.166 7.3 3.48 6.01
8/6/2022 11:00:00 PM 25.08 77.144 0.166 7.29 3.47 5.99
8/6/2022 11:15:00 PM 25.02 77.036 0.165 7.29 3.67 5.99
8/6/2022 11:30:00 PM 24.98 76.964 0.165 7.28 3.3 5.98
8/6/2022 11:45:00 PM 24.94 76.892 0.165 7.28 3.51 5.98
8/7/2022 12:00:00 AM 24.9 76.82 0.165 7.27 3.51 5.97
8/7/2022 12:15:00 AM 24.86 76.748 0.165 7.27 3.49 5.96
8/7/2022 12:30:00 AM 24.83 76.694 0.165 7.26 3.55 5.97
8/7/2022 12:45:00 AM 24.8 76.64 0.165 7.26 3.7 5.94
8/7/2022 1:00:00 AM 24.77 76.586 0.164 7.25 3.4 5.94
8/7/2022 1:15:00 AM 24.74 76.532 0.164 7.25 3.84 5.92
8/7/2022 1:30:00 AM 24.71 76.478 0.165 7.24 3.45 5.91
8/7/2022 1:45:00 AM 24.67 76.406 0.165 7.24 3.31 5.93
8/7/2022 2:00:00 AM 24.64 76.352 0.165 7.24 3.21 5.91
8/7/2022 2:15:00 AM 24.62 76.316 0.165 7.23 3.25 5.89
8/7/2022 2:30:00 AM 24.59 76.262 0.165 7.23 3.06 5.87
8/7/2022 2:45:00 AM 24.56 76.208 0.165 7.22 3.41 5.88
8/7/2022 3:00:00 AM 24.52 76.136 0.165 7.22 3.09 5.87
8/7/2022 3:15:00 AM 24.5 76.1 0.165 7.22 3.18 5.86
8/7/2022 3:30:00 AM 24.47 76.046 0.165 7.21 3.22 5.85
8/7/2022 3:45:00 AM 24.44 75.992 0.165 7.21 3.38 5.84
8/7/2022 4:00:00 AM 24.41 75.938 0.165 7.21 3.65 5.83
8/7/2022 4:15:00 AM 24.38 75.884 0.165 7.2 3.13 5.83
8/7/2022 4:30:00 AM 24.35 75.83 0.165 7.2 2.99 5.81
8/7/2022 4:45:00 AM 24.31 75.758 0.165 7.2 3.16 5.81
8/7/2022 5:00:00 AM 24.26 75.668 0.165 7.2 3.37 5.81
8/7/2022 5:15:00 AM 24.21 75.578 0.166 7.2 2.93 5.82
8/7/2022 5:30:00 AM 24.18 75.524 0.166 7.19 3.24 5.76
8/7/2022 5:45:00 AM 24.12 75.416 0.166 7.19 3.26 5.78
8/7/2022 6:00:00 AM 24.08 75.344 0.166 7.18 3.34 5.66
8/7/2022 6:15:00 AM 24.05 75.29 0.166 7.19 3.37 5.75
8/7/2022 6:30:00 AM 23.98 75.164 0.166 7.19 3.41 5.8
8/7/2022 6:45:00 AM 23.95 75.11 0.166 7.18 3.58 5.82
8/7/2022 7:00:00 AM 23.91 75.038 0.167 7.18 3.43 5.83
8/7/2022 7:15:00 AM 23.88 74.984 0.167 7.18 3.74 5.84
8/7/2022 7:30:00 AM 23.86 74.948 0.167 7.18 3.36 5.86
8/7/2022 7:45:00 AM 23.82 74.876 0.167 7.18 3.36 5.89
8/7/2022 8:00:00 AM 23.82 74.876 0.167 7.18 3.3 5.88
8/7/2022 8:15:00 AM 23.82 74.876 0.167 7.18 3.09 5.9
8/7/2022 8:30:00 AM 23.82 74.876 0.167 7.18 3.91 5.92
8/7/2022 8:45:00 AM 23.84 74.912 0.167 7.18 3.77 5.86
8/7/2022 9:00:00 AM 23.84 74.912 0.168 7.19 3.16 6.05
8/7/2022 9:15:00 AM 23.86 74.948 0.168 7.18 3.21 5.99
8/7/2022 9:30:00 AM 23.88 74.984 0.168 7.19 3.08 6.07
8/7/2022 9:45:00 AM 23.95 75.11 0.168 7.19 3.64 6.17
8/7/2022 10:00:00 AM 24.04 75.272 0.168 7.19 3.02 6.32
8/7/2022 10:15:00 AM 24.13 75.434 0.168 7.2 2.84 6.41
8/7/2022 10:30:00 AM 24.21 75.578 0.168 7.21 2.91 6.46
8/7/2022 10:45:00 AM 24.26 75.668 0.168 7.21 3 6.46
8/7/2022 11:00:00 AM 24.32 75.776 0.168 7.21 2.82 6.47
8/7/2022 11:15:00 AM 24.37 75.866 0.168 7.21 2.67 6.5
8/7/2022 11:30:00 AM 24.41 75.938 0.169 7.22 2.75 6.56
8/7/2022 11:45:00 AM 24.48 76.064 0.169 7.22 2.83 6.67
8/7/2022 12:00:00 PM 24.53 76.154 0.169 7.22 2.54 6.7
8/7/2022 12:15:00 PM 24.64 76.352 0.169 7.24 2.89 6.87
8/7/2022 12:30:00 PM 24.78 76.604 0.169 7.25 2.8 7
8/7/2022 12:45:00 PM 24.86 76.748 0.169 7.25 2.68 7.01
8/7/2022 1:00:00 PM 24.91 76.838 0.169 7.26 2.93 7.04
8/7/2022 1:15:00 PM 25.04 77.07201 0.169 7.27 2.64 7.1
8/7/2022 1:30:00 PM 25.11 77.198 0.169 7.28 2.77 7.17
8/7/2022 1:45:00 PM 25.27 77.486 0.169 7.28 2.68 7.17
8/7/2022 2:00:00 PM 25.36 77.648 0.169 7.27 2.58 7.18
8/7/2022 2:15:00 PM 25.48 77.864 0.169 7.27 2.7 7.17
8/7/2022 2:30:00 PM 25.65 78.17 0.169 7.28 2.54 7.22
8/7/2022 2:45:00 PM 25.64 78.152 0.169 7.29 2.64 7.25
8/7/2022 3:00:00 PM 25.62 78.116 0.169 7.29 2.57 7.25
8/7/2022 3:15:00 PM 25.72 78.296 0.17 7.29 2.64 7.17
8/7/2022 3:30:00 PM 25.84 78.512 0.17 7.29 2.57 7.18
8/7/2022 3:45:00 PM 25.88 78.584 0.17 7.3 2.55 7.19
8/7/2022 4:00:00 PM 25.96 78.728 0.17 7.32 2.47 7.27
8/7/2022 4:15:00 PM 25.95 78.71 0.17 7.32 2.41 7.29
8/7/2022 4:30:00 PM 26.05 78.89 0.17 7.32 2.54 7.17
8/7/2022 4:45:00 PM 25.95 78.71 0.171 7.3 2.39 6.95
8/7/2022 5:00:00 PM 25.87 78.566 0.171 7.29 2.39 6.8
8/7/2022 5:15:00 PM 25.91 78.638 0.171 7.29 2.29 6.69
8/7/2022 5:30:00 PM 25.88 78.584 0.171 7.28 2.44 6.57
8/7/2022 5:45:00 PM 25.91 78.638 0.172 7.26 2.4 6.33
8/7/2022 6:00:00 PM 25.88 78.584 0.172 7.26 2.39 6.35
8/7/2022 6:15:00 PM 25.85 78.53 0.173 7.25 2.4 6.21
8/7/2022 6:30:00 PM 25.82 78.476 0.173 7.25 2.41 6.23
8/7/2022 6:45:00 PM 25.79 78.422 0.174 7.24 2.31 6.21
8/7/2022 7:00:00 PM 25.72 78.296 0.174 7.23 2.52 6.09
8/7/2022 7:15:00 PM 25.65 78.17 0.175 7.21 2.51 5.87
8/7/2022 7:30:00 PM 25.59 78.062 0.175 7.2 2.31 5.79
8/7/2022 7:45:00 PM 25.52 77.936 0.176 7.19 2.47 5.69
8/7/2022 8:00:00 PM 25.46 77.828 0.176 7.18 2.55 5.59
8/7/2022 8:15:00 PM 25.39 77.702 0.177 7.17 2.54 5.53
8/7/2022 8:30:00 PM 25.34 77.612 0.177 7.16 2.61 5.53
8/7/2022 8:45:00 PM 25.26 77.468 0.178 7.15 2.93 5.45
8/7/2022 9:00:00 PM 25.2 77.36 0.178 7.13 2.4 5.29
8/7/2022 9:15:00 PM 25.12 77.216 0.178 7.13 2.9 5.33
8/7/2022 9:30:00 PM 25.03 77.054 0.179 7.13 2.57 5.32
8/7/2022 9:45:00 PM 24.96 76.92799 0.179 7.12 2.48 5.29
8/7/2022 10:00:00 PM 24.87 76.766 0.179 7.12 2.59 5.26
8/7/2022 10:15:00 PM 24.8 76.64 0.179 7.11 2.57 5.24
8/7/2022 10:30:00 PM 24.71 76.478 0.18 7.11 2.58 5.23
8/7/2022 10:45:00 PM 24.65 76.37 0.18 7.1 2.51 5.2
8/7/2022 11:00:00 PM 24.58 76.244 0.18 7.1 2.3 5.19
8/7/2022 11:15:00 PM 24.5 76.1 0.18 7.09 2.41 5.17
8/7/2022 11:30:00 PM 24.43 75.974 0.18 7.09 2.42 5.17
8/7/2022 11:45:00 PM 24.37 75.866 0.18 7.09 2.57 5.16
8/8/2022 12:00:00 AM 24.31 75.758 0.18 7.08 2.34 5.16
8/8/2022 12:15:00 AM 24.24 75.632 0.18 7.08 2.58 5.17
8/8/2022 12:30:00 AM 24.19 75.542 0.18 7.08 2.5 5.15
8/8/2022 12:45:00 AM 24.12 75.416 0.18 7.07 2.31 5.16
8/8/2022 1:00:00 AM 24.06 75.308 0.18 7.08 2.39 5.16
8/8/2022 1:15:00 AM 24.02 75.236 0.18 7.07 2.26 5.15
8/8/2022 1:30:00 AM 23.96 75.128 0.181 7.07 2.48 5.15
8/8/2022 1:45:00 AM 23.91 75.038 0.181 7.07 3.02 5.15
8/8/2022 2:00:00 AM 23.86 74.948 0.181 7.07 2.43 5.16
8/8/2022 2:15:00 AM 23.81 74.858 0.181 7.06 2.3 5.17
8/8/2022 2:30:00 AM 23.76 74.768 0.181 7.07 2.43 5.17
8/8/2022 2:45:00 AM 23.71 74.67799 0.181 7.06 2.29 5.17
8/8/2022 3:00:00 AM 23.66 74.588 0.181 7.06 2.29 5.15
8/8/2022 3:15:00 AM 23.62 74.516 0.181 7.06 2.25 5.15
8/8/2022 3:30:00 AM 23.57 74.426 0.182 7.06 2.41 5.16
8/8/2022 3:45:00 AM 23.53 74.354 0.182 7.05 2.29 5.17
8/8/2022 4:00:00 AM 23.49 74.282 0.182 7.05 2.31 5.17
8/8/2022 4:15:00 AM 23.45 74.21 0.182 7.05 2.23 5.16
8/8/2022 4:30:00 AM 23.41 74.138 0.182 7.05 2.27 5.16
8/8/2022 4:45:00 AM 23.35 74.03 0.182 7.05 2.27 5.16
8/8/2022 5:00:00 AM 23.33 73.994 0.183 7.05 2.2 5.15
8/8/2022 5:15:00 AM 23.28 73.904 0.183 7.05 2.08 5.16
8/8/2022 5:30:00 AM 23.24 73.832 0.183 7.04 2.14 5.16
8/8/2022 5:45:00 AM 23.2 73.76 0.183 7.03 3.15 5.05
8/8/2022 6:00:00 AM 23.16 73.688 0.184 7.03 2.32 5.06
8/8/2022 6:15:00 AM 23.12 73.616 0.184 7.03 2.22 5.1
8/8/2022 6:30:00 AM 23.07 73.526 0.184 7.03 2.23 5.12
8/8/2022 6:45:00 AM 23.04 73.472 0.184 7.03 2.34 5.14
8/8/2022 7:00:00 AM 23 73.4 0.185 7.03 2.22 5.16
8/8/2022 7:15:00 AM 22.97 73.346 0.185 7.03 3.07 5.19
8/8/2022 7:30:00 AM 22.95 73.31 0.185 7.03 2.18 5.18
8/8/2022 7:45:00 AM 22.94 73.292 0.185 7.02 2.27 5.16
8/8/2022 8:00:00 AM 22.92 73.256 0.185 7.03 2.33 5.26
8/8/2022 8:15:00 AM 22.91 73.238 0.186 7.03 2.59 5.29
8/8/2022 8:30:00 AM 22.91 73.238 0.186 7.02 2.33 5.28
8/8/2022 8:45:00 AM 22.92 73.256 0.186 7.02 2.32 5.27
8/8/2022 9:00:00 AM 22.95 73.31 0.186 7.02 2.45 5.11
8/8/2022 9:15:00 AM 22.98 73.364 0.187 7.02 2.07 5.22
8/8/2022 9:30:00 AM 23.03 73.454 0.187 7.02 2.28 5.28
8/8/2022 9:45:00 AM 23.07 73.526 0.187 7.02 2.23 5.25
8/8/2022 10:00:00 AM 23.14 73.652 0.187 7.01 2.11 5.48
8/8/2022 10:15:00 AM 23.25 73.85 0.187 7.01 1.92 5.69
8/8/2022 10:30:00 AM 23.37 74.066 0.187 7.02 1.9 5.82
8/8/2022 10:45:00 AM 23.49 74.282 0.187 7.03 2.03 5.93
8/8/2022 11:00:00 AM 23.58 74.444 0.187 7.03 2.16 5.93
8/8/2022 11:15:00 AM 23.69 74.642 0.187 7.04 2 5.92
8/8/2022 11:30:00 AM 23.79 74.82201 0.187 7.04 1.87 6.01
8/8/2022 11:45:00 AM 23.87 74.966 0.187 7.04 2.22 5.92
8/8/2022 12:00:00 PM 23.98 75.164 0.187 7.05 2.09 6.11
8/8/2022 12:15:00 PM 24.11 75.398 0.187 7.05 2.31 6.09
8/8/2022 12:30:00 PM 24.23 75.614 0.187 7.05 1.77 6.13
8/8/2022 12:45:00 PM 24.37 75.866 0.187 7.06 2.12 6.22
8/8/2022 1:00:00 PM 24.44 75.992 0.187 7.06 1.77 6.18
8/8/2022 1:15:00 PM 24.54 76.172 0.187 7.06 1.91 6.15
8/8/2022 1:30:00 PM 24.66 76.388 0.187 7.07 1.75 6.23
8/8/2022 1:45:00 PM 24.74 76.532 0.187 7.06 2 6.24
8/8/2022 2:00:00 PM 24.83 76.694 0.187 7.06 1.74 6.15
8/8/2022 2:15:00 PM 24.91 76.838 0.187 7.06 1.76 6.03
8/8/2022 2:30:00 PM 24.96 76.92799 0.187 7.06 1.79 5.9
8/8/2022 2:45:00 PM 25.04 77.07201 0.187 7.1 1.96 6.43
8/8/2022 3:00:00 PM 25.13 77.234 0.187 7.1 1.85 6.55
8/8/2022 3:15:00 PM 25.16 77.288 0.187 7.1 1.78 6.56
8/8/2022 3:30:00 PM 25.23 77.414 0.187 7.11 2.14 6.57
8/8/2022 3:45:00 PM 25.23 77.414 0.187 7.12 2.11 6.83
8/8/2022 4:00:00 PM 25.33 77.594 0.187 7.14 3.55 6.88
8/8/2022 4:15:00 PM 25.34 77.612 0.187 7.14 1.83 6.94
8/8/2022 4:30:00 PM 25.4 77.72 0.187 7.15 1.8 6.95
8/8/2022 4:45:00 PM 25.44 77.792 0.188 7.15 2.22 6.64
8/8/2022 5:00:00 PM 25.43 77.774 0.188 7.16 1.85 6.65
8/8/2022 5:15:00 PM 25.49 77.882 0.188 7.14 1.82 6.43
8/8/2022 5:30:00 PM 25.51 77.918 0.188 7.11 2.08 6.17
8/8/2022 5:45:00 PM 25.53 77.954 0.188 7.1 1.64 6.09
8/8/2022 6:00:00 PM 25.55 77.99 0.189 7.1 1.82 6.02
8/8/2022 6:15:00 PM 25.57 78.026 0.189 7.09 1.65 5.91
8/8/2022 6:30:00 PM 25.6 78.08 0.189 7.08 1.65 5.76
8/8/2022 6:45:00 PM 25.61 78.098 0.189 7.07 2.18 5.7
8/8/2022 7:00:00 PM 25.57 78.026 0.19 7.07 1.69 5.63
8/8/2022 7:15:00 PM 25.57 78.026 0.19 7.08 1.8 5.49
8/8/2022 7:30:00 PM 25.56 78.008 0.191 7.07 1.92 5.4
8/8/2022 7:45:00 PM 25.53 77.954 0.191 7.06 1.76 5.29
8/8/2022 8:00:00 PM 25.5 77.9 0.192 7.04 1.76 5.04
8/8/2022 8:15:00 PM 25.46 77.828 0.192 7.04 1.7 4.93
8/8/2022 8:30:00 PM 25.41 77.738 0.193 7.02 1.87 4.7
8/8/2022 8:45:00 PM 25.38 77.684 0.193 7.01 1.71 4.66
8/8/2022 9:00:00 PM 25.33 77.594 0.194 7.01 1.94 4.62
8/8/2022 9:15:00 PM 25.27 77.486 0.194 7 1.85 4.57
8/8/2022 9:30:00 PM 25.18 77.324 0.194 6.99 1.69 4.48
8/8/2022 9:45:00 PM 25.12 77.216 0.194 6.98 1.66 4.44
8/8/2022 10:00:00 PM 25.05 77.09 0.195 6.98 1.93 4.39
8/8/2022 10:15:00 PM 24.99 76.982 0.195 6.97 1.73 4.35
8/8/2022 10:30:00 PM 24.94 76.892 0.195 6.97 1.75 4.32
8/8/2022 10:45:00 PM 24.87 76.766 0.195 6.97 1.75 4.29
8/8/2022 11:00:00 PM 24.82 76.676 0.195 6.97 1.75 4.28
8/8/2022 11:15:00 PM 24.75 76.55 0.196 6.96 1.68 4.25
8/8/2022 11:30:00 PM 24.69 76.442 0.196 6.96 1.94 4.23
8/8/2022 11:45:00 PM 24.64 76.352 0.196 6.96 1.55 4.21
8/9/2022 12:00:00 AM 24.58 76.244 0.196 6.95 1.66 4.21
8/9/2022 12:15:00 AM 24.53 76.154 0.196 6.95 1.7 4.21
8/9/2022 12:30:00 AM 24.48 76.064 0.196 6.95 1.72 4.21
8/9/2022 12:45:00 AM 24.43 75.974 0.196 6.95 1.8 4.2
8/9/2022 1:00:00 AM 24.38 75.884 0.196 6.95 1.78 4.21
8/9/2022 1:15:00 AM 24.33 75.794 0.196 6.95 1.66 4.2
8/9/2022 1:30:00 AM 24.29 75.722 0.196 6.95 5.27 4.22
8/9/2022 1:45:00 AM 24.24 75.632 0.196 6.95 1.6 4.22
8/9/2022 2:00:00 AM 24.19 75.542 0.197 6.95 1.57 4.24
8/9/2022 2:15:00 AM 24.13 75.434 0.197 6.95 1.65 4.23
8/9/2022 2:30:00 AM 24.08 75.344 0.196 6.95 1.69 4.25
8/9/2022 2:45:00 AM 24.03 75.254 0.196 6.95 1.48 4.27
8/9/2022 3:00:00 AM 23.98 75.164 0.196 6.95 1.6 4.28
8/9/2022 3:15:00 AM 23.94 75.092 0.196 6.95 1.64 4.29
8/9/2022 3:30:00 AM 23.89 75.002 0.196 6.95 1.73 4.3
8/9/2022 3:45:00 AM 23.85 74.93 0.196 6.95 1.65 4.32
8/9/2022 4:00:00 AM 23.81 74.858 0.196 6.95 1.65 4.34
8/9/2022 4:15:00 AM 23.78 74.804 0.196 6.95 1.69 4.33
8/9/2022 4:30:00 AM 23.76 74.768 0.196 6.95 1.7 4.34
8/9/2022 4:45:00 AM 23.73 74.714 0.196 6.95 1.6 4.35
8/9/2022 5:00:00 AM 23.71 74.67799 0.196 6.94 1.6 4.35
8/9/2022 5:15:00 AM 23.69 74.642 0.196 6.94 1.66 4.35
8/9/2022 5:30:00 AM 23.67 74.606 0.196 6.94 1.75 4.35
8/9/2022 5:45:00 AM 23.66 74.588 0.196 6.94 2 4.24
8/9/2022 6:00:00 AM 23.63 74.534 0.196 6.93 1.91 4.22
8/9/2022 6:15:00 AM 23.62 74.516 0.196 6.93 2.24 4.16
8/9/2022 6:30:00 AM 23.59 74.462 0.196 6.93 2.13 4.23
8/9/2022 6:45:00 AM 23.58 74.444 0.196 6.93 1.96 4.09
8/9/2022 7:00:00 AM 23.56 74.408 0.196 6.92 2.09 4.12
8/9/2022 7:15:00 AM 23.54 74.372 0.196 6.92 1.91 4.16
8/9/2022 7:30:00 AM 23.54 74.372 0.196 6.93 2.08 4.28
8/9/2022 7:45:00 AM 23.55 74.39 0.196 6.94 2.06 4.35
8/9/2022 8:00:00 AM 23.54 74.372 0.196 6.94 1.98 4.41
8/9/2022 8:15:00 AM 23.55 74.39 0.195 6.93 2.14 4.42
8/9/2022 8:30:00 AM 23.56 74.408 0.195 6.93 1.93 4.37
8/9/2022 8:45:00 AM 23.56 74.408 0.195 6.94 1.89 4.57
8/9/2022 9:00:00 AM 23.58 74.444 0.195 6.94 1.96 4.65
8/9/2022 9:15:00 AM 23.6 74.48 0.195 6.94 2.16 4.69
8/9/2022 9:30:00 AM 23.64 74.552 0.195 6.94 1.8 4.81
8/9/2022 9:45:00 AM 23.68 74.624 0.195 6.94 1.77 4.94
8/9/2022 10:00:00 AM 23.73 74.714 0.194 6.94 1.74 4.9
8/9/2022 10:15:00 AM 23.76 74.768 0.194 6.94 8.21 5.1
8/9/2022 10:30:00 AM 23.78 74.804 0.194 6.95 2.12 5.32
8/9/2022 10:45:00 AM 23.87 74.966 0.194 6.96 1.89 5.48
8/9/2022 11:00:00 AM 23.95 75.11 0.195 6.97 1.91 5.31
8/9/2022 11:15:00 AM 23.96 75.128 0.194 6.97 1.97 5.54
8/9/2022 11:30:00 AM 23.9 75.02 0.194 6.96 2.04 5.44
8/9/2022 11:45:00 AM 23.86 74.948 0.193 6.95 2.09 5.34
8/9/2022 12:00:00 PM 23.87 74.966 0.192 6.95 3.25 5.4
8/9/2022 12:15:00 PM 23.95 75.11 0.191 6.96 1.94 5.6
8/9/2022 12:30:00 PM 24.06 75.308 0.191 6.98 1.69 5.79
8/9/2022 12:45:00 PM 24.13 75.434 0.191 6.99 1.55 5.96
8/9/2022 1:00:00 PM 24.21 75.578 0.191 6.98 1.61 5.94
8/9/2022 1:15:00 PM 24.27 75.686 0.191 6.99 1.59 6.1
8/9/2022 1:30:00 PM 24.32 75.776 0.191 6.99 1.68 6.16
8/9/2022 1:45:00 PM 24.37 75.866 0.191 7 1.66 6.19
8/9/2022 2:00:00 PM 24.46 76.028 0.19 7.01 1.99 6.37
8/9/2022 2:15:00 PM 24.56 76.208 0.19 7 1.73 6.45
8/9/2022 2:30:00 PM 24.61 76.298 0.19 7 1.86 6.47
8/9/2022 2:45:00 PM 24.62 76.316 0.19 7.01 1.61 6.41
8/9/2022 3:00:00 PM 24.65 76.37 0.191 7.03 1.78 6.43
8/9/2022 3:15:00 PM 24.67 76.406 0.191 7.04 2.14 6.32
8/9/2022 3:30:00 PM 24.71 76.478 0.19 7.04 1.75 6.44
8/9/2022 3:45:00 PM 24.71 76.478 0.19 7.05 1.93 6.48
8/9/2022 4:00:00 PM 24.71 76.478 0.19 7.05 1.66 6.46
8/9/2022 4:15:00 PM 24.73 76.514 0.19 7.04 1.58 6.4
8/9/2022 4:30:00 PM 24.75 76.55 0.19 7.03 1.53 6.3
8/9/2022 4:45:00 PM 24.76 76.568 0.19 7.02 1.57 6.27
8/9/2022 5:00:00 PM 24.78 76.604 0.19 7.02 1.52 6.2
8/9/2022 5:15:00 PM 24.79 76.622 0.19 7.01 1.54 6.17
8/9/2022 5:30:00 PM 24.81 76.658 0.189 7.01 1.46 6.14
8/9/2022 5:45:00 PM 24.82 76.676 0.189 7.01 1.47 6.08
8/9/2022 6:00:00 PM 24.81 76.658 0.19 7.01 1.5 6.02
8/9/2022 6:15:00 PM 24.8 76.64 0.19 6.99 1.45 5.91
8/9/2022 6:30:00 PM 24.74 76.532 0.19 6.99 1.61 5.81
8/9/2022 6:45:00 PM 24.71 76.478 0.19 6.98 1.49 5.71
8/9/2022 7:00:00 PM 24.7 76.46 0.19 6.98 1.57 5.61
8/9/2022 7:15:00 PM 24.67 76.406 0.19 6.98 1.56 5.51
8/9/2022 7:30:00 PM 24.65 76.37 0.19 6.97 1.51 5.43
8/9/2022 7:45:00 PM 24.6 76.28 0.19 6.96 1.54 5.28
8/9/2022 8:00:00 PM 24.58 76.244 0.191 6.96 1.42 5.18
8/9/2022 8:15:00 PM 24.54 76.172 0.191 6.96 1.42 5.01
8/9/2022 8:30:00 PM 24.5 76.1 0.191 6.95 1.5 4.85
8/9/2022 8:45:00 PM 24.46 76.028 0.192 6.94 1.48 4.73
8/9/2022 9:00:00 PM 24.43 75.974 0.192 6.94 1.42 4.64
8/9/2022 9:15:00 PM 24.38 75.884 0.192 6.94 1.73 4.51
8/9/2022 9:30:00 PM 24.35 75.83 0.193 6.93 1.5 4.41
8/9/2022 9:45:00 PM 24.3 75.74 0.193 6.93 1.56 4.33
8/9/2022 10:00:00 PM 24.23 75.614 0.193 6.92 1.4 4.23
8/9/2022 10:15:00 PM 24.18 75.524 0.193 6.92 1.49 4.16
8/9/2022 10:30:00 PM 24.13 75.434 0.194 6.91 1.4 4.1
8/9/2022 10:45:00 PM 24.07 75.326 0.194 6.91 1.56 4.05
8/9/2022 11:00:00 PM 24.03 75.254 0.194 6.91 1.38 4.03
8/9/2022 11:15:00 PM 23.98 75.164 0.194 6.91 1.42 3.99
8/9/2022 11:30:00 PM 23.91 75.038 0.195 6.9 1.28 3.95
8/9/2022 11:45:00 PM 23.86 74.948 0.195 6.9 1.55 3.93
8/10/2022 12:00:00 AM 23.8 74.84 0.195 6.9 1.38 3.94
8/10/2022 12:15:00 AM 23.73 74.714 0.195 6.9 1.54 3.93
8/10/2022 12:30:00 AM 23.68 74.624 0.195 6.9 1.37 3.93
8/10/2022 12:45:00 AM 23.63 74.534 0.196 6.9 1.59 3.93
8/10/2022 1:00:00 AM 23.59 74.462 0.196 6.9 1.5 3.91
8/10/2022 1:15:00 AM 23.52 74.336 0.196 6.9 1.47 3.93
8/10/2022 1:30:00 AM 23.47 74.246 0.196 6.9 1.42 3.92
8/10/2022 1:45:00 AM 23.41 74.138 0.196 6.9 1.82 3.94
8/10/2022 2:00:00 AM 23.36 74.048 0.196 6.9 1.49 3.95
8/10/2022 2:15:00 AM 23.29 73.922 0.196 6.91 1.45 4.01
8/10/2022 2:30:00 AM 23.24 73.832 0.196 6.91 1.57 4.02
8/10/2022 2:45:00 AM 23.19 73.742 0.196 6.91 1.41 4.02
8/10/2022 3:00:00 AM 23.13 73.634 0.196 6.91 1.75 4.07
8/10/2022 3:15:00 AM 23.07 73.526 0.196 6.91 1.51 4.08
8/10/2022 3:30:00 AM 23.01 73.418 0.196 6.91 1.39 4.1
8/10/2022 3:45:00 AM 22.97 73.346 0.196 6.92 1.51 4.12
8/10/2022 4:00:00 AM 22.92 73.256 0.196 6.92 1.39 4.14
8/10/2022 4:15:00 AM 22.87 73.166 0.196 6.92 1.52 4.13
8/10/2022 4:30:00 AM 22.82 73.076 0.196 6.92 1.41 4.14
8/10/2022 4:45:00 AM 22.76 72.968 0.196 6.92 1.49 4.17
8/10/2022 5:00:00 AM 22.7 72.86 0.196 6.91 1.55 4.2
8/10/2022 5:15:00 AM 22.63 72.734 0.196 6.92 1.49 4.22
8/10/2022 5:30:00 AM 22.59 72.662 0.196 6.91 1.97 4.2
8/10/2022 5:45:00 AM 22.54 72.57201 0.196 6.91 1.68 4.2
8/10/2022 6:00:00 AM 22.5 72.5 0.196 6.91 1.65 4.14
8/10/2022 6:15:00 AM 22.46 72.42799 0.196 6.91 1.6 4.22
8/10/2022 6:30:00 AM 22.42 72.356 0.196 6.9 1.74 4.17
8/10/2022 6:45:00 AM 22.38 72.284 0.196 6.9 1.72 4.23
8/10/2022 7:00:00 AM 22.33 72.194 0.196 6.9 1.87 4.29
8/10/2022 7:15:00 AM 22.3 72.14 0.196 6.9 2 4.32
8/10/2022 7:30:00 AM 22.27 72.086 0.196 6.9 1.73 4.36
8/10/2022 7:45:00 AM 22.26 72.068 0.196 6.91 1.72 4.47
8/10/2022 8:00:00 AM 22.24 72.032 0.196 6.91 1.87 4.54
8/10/2022 8:15:00 AM 22.21 71.978 0.195 6.91 1.7 4.65
8/10/2022 8:30:00 AM 22.2 71.96 0.195 6.91 1.56 4.71
8/10/2022 8:45:00 AM 22.19 71.942 0.195 6.91 1.76 4.73
8/10/2022 9:00:00 AM 22.18 71.924 0.195 6.92 1.89 4.82
8/10/2022 9:15:00 AM 22.19 71.942 0.195 6.92 1.69 4.91
8/10/2022 9:30:00 AM 22.19 71.942 0.195 6.93 1.71 4.98
8/10/2022 9:45:00 AM 22.21 71.978 0.195 6.94 1.71 5.09
8/10/2022 10:00:00 AM 22.23 72.014 0.195 6.94 1.49 5.13
8/10/2022 10:15:00 AM 22.26 72.068 0.194 6.95 1.45 5.31
8/10/2022 10:30:00 AM 22.31 72.158 0.194 6.94 1.63 5.34
8/10/2022 10:45:00 AM 22.34 72.212 0.194 6.94 1.5 5.36
8/10/2022 11:00:00 AM 22.45 72.41 0.193 6.94 1.43 5.6
8/10/2022 11:15:00 AM 22.51 72.518 0.193 6.94 1.56 5.71
8/10/2022 11:30:00 AM 22.52 72.536 0.193 6.94 1.48 5.71
8/10/2022 11:45:00 AM 22.61 72.698 0.193 6.94 1.43 5.86
8/10/2022 12:00:00 PM 22.7 72.86 0.192 6.92 1.51 5.65
8/10/2022 12:15:00 PM 22.78 73.004 0.191 6.89 1.61 5.57
8/10/2022 12:30:00 PM 22.85 73.13 0.191 6.87 1.31 5.44
8/10/2022 12:45:00 PM 22.94 73.292 0.192 6.87 1.34 5.52
8/10/2022 1:00:00 PM 23.02 73.436 0.192 6.89 1.36 5.62
8/10/2022 1:15:00 PM 23.09 73.562 0.191 6.87 1.38 5.52
8/10/2022 1:30:00 PM 23.13 73.634 0.191 6.87 1.31 5.53
8/10/2022 1:45:00 PM 23.15 73.67 0.191 6.87 1.38 5.61
8/10/2022 2:00:00 PM 23.14 73.652 0.191 6.88 1.46 5.74
8/10/2022 2:15:00 PM 23.25 73.85 0.191 6.87 1.22 5.7
8/10/2022 2:30:00 PM 23.21 73.778 0.191 6.88 1.79 5.76
8/10/2022 2:45:00 PM 23.19 73.742 0.19 6.86 1.35 5.7
8/10/2022 3:00:00 PM 23.24 73.832 0.19 6.86 1.45 5.62
8/10/2022 3:15:00 PM 23.23 73.814 0.19 6.83 1.41 5.42
8/10/2022 3:30:00 PM 23.22 73.796 0.19 6.81 1.37 5.17
8/10/2022 3:45:00 PM 23.26 73.868 0.189 6.81 1.25 5.24
8/10/2022 4:00:00 PM 23.23 73.814 0.19 6.8 1.47 5.05
8/10/2022 4:15:00 PM 23.37 74.066 0.19 6.84 1.52 5.54
8/10/2022 4:30:00 PM 23.23 73.814 0.19 6.8 1.35 5.05
8/10/2022 4:45:00 PM 23.31 73.958 0.19 6.82 1.34 5.25
8/10/2022 5:00:00 PM 23.27 73.886 0.19 6.79 1.15 4.85
8/10/2022 5:15:00 PM 23.36 74.048 0.19 6.82 1.24 5
8/10/2022 5:30:00 PM 23.35 74.03 0.19 6.82 1.27 4.92
8/10/2022 5:45:00 PM 23.38 74.084 0.19 6.81 1.37 4.63
8/10/2022 6:00:00 PM 23.43 74.174 0.19 6.81 1.26 4.57
8/10/2022 6:15:00 PM 23.46 74.228 0.191 6.8 1.33 4.48
8/10/2022 6:30:00 PM 23.49 74.282 0.191 6.8 1.28 4.41
8/10/2022 6:45:00 PM 23.5 74.3 0.191 6.81 1.4 4.47
8/10/2022 7:00:00 PM 23.52 74.336 0.191 6.81 1.31 4.35
8/10/2022 7:15:00 PM 23.55 74.39 0.191 6.81 1.31 4.25
8/10/2022 7:30:00 PM 23.57 74.426 0.192 6.81 1.27 4.15
8/10/2022 7:45:00 PM 23.57 74.426 0.192 6.82 1.39 4.15
8/10/2022 8:00:00 PM 23.56 74.408 0.192 6.82 1.52 4.07
8/10/2022 8:15:00 PM 23.53 74.354 0.192 6.82 1.33 3.94
8/10/2022 8:30:00 PM 23.52 74.336 0.192 6.81 1.29 3.79
8/10/2022 8:45:00 PM 23.51 74.318 0.192 6.8 1.5 3.65
8/10/2022 9:00:00 PM 23.52 74.336 0.192 6.8 1.27 3.58
8/10/2022 9:15:00 PM 23.5 74.3 0.193 6.79 1.35 3.47
8/10/2022 9:30:00 PM 23.5 74.3 0.193 6.8 1.6 3.46
8/10/2022 9:45:00 PM 23.47 74.246 0.193 6.81 1.51 3.49
8/10/2022 10:00:00 PM 23.42 74.156 0.193 6.8 1.51 3.33
8/10/2022 10:15:00 PM 23.37 74.066 0.194 6.8 1.38 3.28
8/10/2022 10:30:00 PM 23.34 74.012 0.194 6.8 1.31 3.25
8/10/2022 10:45:00 PM 23.32 73.976 0.194 6.81 1.33 3.27
8/10/2022 11:00:00 PM 23.27 73.886 0.194 6.81 1.24 3.3
8/10/2022 11:15:00 PM 23.21 73.778 0.195 6.82 1.22 3.33
8/10/2022 11:30:00 PM 23.17 73.706 0.195 6.82 1.91 3.35
8/10/2022 11:45:00 PM 23.13 73.634 0.195 6.83 1.24 3.39
8/11/2022 12:00:00 AM 23.08 73.544 0.195 6.84 1.32 3.45
8/11/2022 12:15:00 AM 23.04 73.472 0.196 6.84 1.42 3.45
8/11/2022 12:30:00 AM 23 73.4 0.196 6.85 1.44 3.45
8/11/2022 12:45:00 AM 22.95 73.31 0.196 6.85 1.3 3.47
8/11/2022 1:00:00 AM 22.89 73.202 0.196 6.86 1.34 3.52
8/11/2022 1:15:00 AM 22.84 73.112 0.197 6.87 1.35 3.58
8/11/2022 1:30:00 AM 22.79 73.022 0.197 6.87 1.36 3.58
8/11/2022 1:45:00 AM 22.73 72.914 0.197 6.87 1.28 3.57
8/11/2022 2:00:00 AM 22.67 72.806 0.197 6.86 1.27 3.56
8/11/2022 2:15:00 AM 22.61 72.698 0.197 6.86 1.43 3.54
8/11/2022 2:30:00 AM 22.56 72.608 0.197 6.85 1.41 3.52
8/11/2022 2:45:00 AM 22.49 72.482 0.197 6.85 1.28 3.52
8/11/2022 3:00:00 AM 22.43 72.374 0.197 6.85 1.39 3.56
8/11/2022 3:15:00 AM 22.36 72.248 0.197 6.86 1.3 3.58
8/11/2022 3:30:00 AM 22.29 72.122 0.197 6.86 1.45 3.63
8/11/2022 3:45:00 AM 22.22 71.996 0.197 6.86 1.48 3.66
8/11/2022 4:00:00 AM 22.17 71.906 0.197 6.87 1.41 3.67
8/11/2022 4:15:00 AM 22.09 71.762 0.197 6.87 1.31 3.73
8/11/2022 4:30:00 AM 22.03 71.654 0.197 6.87 1.7 3.75
8/11/2022 4:45:00 AM 21.96 71.528 0.197 6.87 1.4 3.78
8/11/2022 5:00:00 AM 21.91 71.438 0.197 6.87 1.63 3.78
8/11/2022 5:15:00 AM 21.83 71.294 0.197 6.88 1.36 3.85
8/11/2022 5:30:00 AM 21.78 71.204 0.197 6.88 1.67 3.84
8/11/2022 5:45:00 AM 21.73 71.114 0.198 6.88 1.51 3.87
8/11/2022 6:00:00 AM 21.67 71.006 0.197 6.88 1.72 3.87
8/11/2022 6:15:00 AM 21.59 70.862 0.197 6.87 1.7 3.85
8/11/2022 6:30:00 AM 21.53 70.754 0.197 6.87 1.92 3.94
8/11/2022 6:45:00 AM 21.48 70.664 0.197 6.87 1.72 3.96
8/11/2022 7:00:00 AM 21.41 70.538 0.197 6.87 1.84 3.99
8/11/2022 7:15:00 AM 21.34 70.412 0.197 6.86 1.79 4
8/11/2022 7:30:00 AM 21.3 70.34 0.197 6.87 1.62 4.02
8/11/2022 7:45:00 AM 21.24 70.232 0.197 6.86 1.89 4.07
8/11/2022 8:00:00 AM 21.2 70.16 0.197 6.86 1.72 4.13
8/11/2022 8:15:00 AM 21.17 70.106 0.197 6.86 1.6 4.16
8/11/2022 8:30:00 AM 21.15 70.07 0.197 6.86 1.86 4.18
8/11/2022 8:45:00 AM 21.14 70.052 0.197 6.87 1.63 4.27
8/11/2022 9:00:00 AM 21.15 70.07 0.197 6.88 1.67 4.34
8/11/2022 9:15:00 AM 21.12 70.016 0.197 6.9 1.53 4.46
8/11/2022 9:30:00 AM 21.12 70.016 0.197 6.93 1.57 4.63
8/11/2022 9:45:00 AM 21.15 70.07 0.197 6.95 1.53 4.82
8/11/2022 10:00:00 AM 21.21 70.17799 0.197 6.95 1.43 4.83
8/11/2022 10:15:00 AM 21.31 70.358 0.197 6.93 1.29 4.51
8/11/2022 10:30:00 AM 21.44 70.592 0.197 6.88 1.51 4.36
8/11/2022 10:45:00 AM 21.48 70.664 0.197 6.91 1.7 4.49
8/11/2022 11:00:00 AM 21.52 70.736 0.197 6.92 1.51 4.66
8/11/2022 11:15:00 AM 21.71 71.078 0.197 6.9 1.44 4.64
8/11/2022 11:30:00 AM 21.8 71.24 0.196 6.89 1.37 4.62
8/11/2022 11:45:00 AM 21.89 71.402 0.196 6.9 1.35 5.11
8/11/2022 12:00:00 PM 22 71.6 0.196 6.93 1.34 5.8
8/11/2022 12:15:00 PM 22.11 71.798 0.195 6.91 1.41 5.4
8/11/2022 12:30:00 PM 22.2 71.96 0.194 6.9 1.34 5.37
8/11/2022 12:45:00 PM 22.28 72.104 0.194 6.87 1.37 5.09
8/11/2022 1:00:00 PM 22.43 72.374 0.193 6.83 1.26 4.84
8/11/2022 1:15:00 PM 22.42 72.356 0.193 6.83 1.28 4.86
8/11/2022 1:30:00 PM 22.4 72.32 0.193 6.81 1.34 4.94
8/11/2022 1:45:00 PM 22.4 72.32 0.193 6.82 2.16 4.96
8/11/2022 2:00:00 PM 22.41 72.338 0.193 6.84 1.66 5.02
8/11/2022 2:15:00 PM 22.4 72.32 0.193 6.86 1.76 5.17
8/11/2022 2:30:00 PM 22.37 72.266 0.194 6.89 1.5 5.54
8/11/2022 2:45:00 PM 22.42 72.356 0.193 6.87 1.34 5.31
8/11/2022 3:00:00 PM 22.42 72.356 0.193 6.88 1.66 5.47
8/11/2022 3:15:00 PM 22.41 72.338 0.193 6.89 1.53 5.68
8/11/2022 3:30:00 PM 22.45 72.41 0.193 6.9 1.78 5.7
8/11/2022 3:45:00 PM 22.58 72.644 0.193 6.9 1.55 5.67
8/11/2022 4:00:00 PM 22.47 72.446 0.192 6.89 1.78 5.67
8/11/2022 4:15:00 PM 22.6 72.68 0.193 6.9 1.75 5.77
8/11/2022 4:30:00 PM 22.57 72.626 0.192 6.88 1.53 5.69
8/11/2022 4:45:00 PM 22.63 72.734 0.192 6.87 1.48 5.55
8/11/2022 5:00:00 PM 22.63 72.734 0.192 6.87 1.51 5.56
8/11/2022 5:15:00 PM 22.69 72.842 0.192 6.88 1.39 5.5
8/11/2022 5:30:00 PM 22.7 72.86 0.192 6.88 1.38 5.51
8/11/2022 5:45:00 PM 22.75 72.95 0.192 6.88 1.55 5.48
8/11/2022 6:00:00 PM 22.79 73.022 0.192 6.88 1.47 5.37
8/11/2022 6:15:00 PM 22.8 73.04 0.192 6.9 1.46 5.35
8/11/2022 6:30:00 PM 22.85 73.13 0.192 6.9 1.71 5.14
8/11/2022 6:45:00 PM 22.86 73.148 0.192 6.9 2.24 5.14
8/11/2022 7:00:00 PM 22.86 73.148 0.193 6.91 1.74 5.26
8/11/2022 7:15:00 PM 22.86 73.148 0.193 6.93 1.79 5.3
8/11/2022 7:30:00 PM 22.85 73.13 0.193 6.95 1.96 5.29
8/11/2022 7:45:00 PM 22.86 73.148 0.193 6.93 1.68 5.01
8/11/2022 8:00:00 PM 22.86 73.148 0.193 6.89 2.02 4.6
8/11/2022 8:15:00 PM 22.86 73.148 0.194 6.86 1.64 4.3
8/11/2022 8:30:00 PM 22.85 73.13 0.194 6.84 1.6 4.08
8/11/2022 8:45:00 PM 22.85 73.13 0.194 6.85 1.52 3.98
8/11/2022 9:00:00 PM 22.85 73.13 0.194 6.85 1.64 3.94
8/11/2022 9:15:00 PM 22.86 73.148 0.194 6.84 1.53 3.76
8/11/2022 9:30:00 PM 22.84 73.112 0.194 6.81 1.94 3.56
8/11/2022 9:45:00 PM 22.82 73.076 0.194 6.8 1.4 3.42
8/11/2022 10:00:00 PM 22.81 73.058 0.194 6.8 1.4 3.36
8/11/2022 10:15:00 PM 22.79 73.022 0.195 6.81 1.51 3.36
8/11/2022 10:30:00 PM 22.75 72.95 0.195 6.8 1.48 3.28
8/11/2022 10:45:00 PM 22.71 72.878 0.195 6.79 1.4 3.17
8/11/2022 11:00:00 PM 22.7 72.86 0.195 6.81 1.95 3.29
8/11/2022 11:15:00 PM 22.63 72.734 0.195 6.79 1.39 3.12
8/11/2022 11:30:00 PM 22.59 72.662 0.195 6.78 1.33 3.04
8/11/2022 11:45:00 PM 22.61 72.698 0.196 6.83 1.46 3.23
8/12/2022 12:00:00 AM 22.53 72.554 0.196 6.79 1.28 3.06
8/12/2022 12:15:00 AM 22.5 72.5 0.196 6.8 1.26 3.02
8/12/2022 12:30:00 AM 22.47 72.446 0.196 6.8 1.39 3.08
8/12/2022 12:45:00 AM 22.41 72.338 0.196 6.79 1.29 3.02
8/12/2022 1:00:00 AM 22.4 72.32 0.196 6.81 1.29 3.11
8/12/2022 1:15:00 AM 22.35 72.23 0.196 6.8 1.21 3.1
8/12/2022 1:30:00 AM 22.32 72.176 0.197 6.82 1.26 3.19
8/12/2022 1:45:00 AM 22.27 72.086 0.197 6.85 1.4 3.31
8/12/2022 2:00:00 AM 22.22 71.996 0.198 6.86 1.36 3.41
8/12/2022 2:15:00 AM 22.14 71.852 0.197 6.83 1.3 3.3
8/12/2022 2:30:00 AM 22.1 71.78 0.197 6.84 1.3 3.29
8/12/2022 2:45:00 AM 22.04 71.672 0.197 6.84 1.32 3.32
8/12/2022 3:00:00 AM 21.99 71.582 0.198 6.85 1.76 3.38
8/12/2022 3:15:00 AM 21.92 71.456 0.198 6.89 1.4 3.57
8/12/2022 3:30:00 AM 21.89 71.402 0.198 6.9 1.51 3.62
8/12/2022 3:45:00 AM 21.81 71.258 0.198 6.9 1.26 3.66
8/12/2022 4:00:00 AM 21.74 71.132 0.198 6.9 1.48 3.66
8/12/2022 4:15:00 AM 21.68 71.024 0.198 6.9 1.46 3.68
8/12/2022 4:30:00 AM 21.63 70.934 0.199 6.9 1.25 3.67
8/12/2022 4:45:00 AM 21.57 70.826 0.198 6.89 1.26 3.66
8/12/2022 5:00:00 AM 21.5 70.7 0.198 6.89 1.18 3.66
8/12/2022 5:15:00 AM 21.45 70.61 0.198 6.89 1.28 3.66
8/12/2022 5:30:00 AM 21.41 70.538 0.199 6.9 1.26 3.68
8/12/2022 5:45:00 AM 21.34 70.412 0.198 6.88 1.77 3.57
8/12/2022 6:00:00 AM 21.3 70.34 0.198 6.89 1.36 3.63
8/12/2022 6:15:00 AM 21.26 70.268 0.198 6.88 1.62 3.56
8/12/2022 6:30:00 AM 21.19 70.142 0.198 6.87 1.4 3.62
8/12/2022 6:45:00 AM 21.14 70.052 0.198 6.87 1.24 3.7
8/12/2022 7:00:00 AM 21.07 69.926 0.198 6.87 1.39 3.76
8/12/2022 7:15:00 AM 21.01 69.818 0.198 6.86 1.36 3.76
8/12/2022 7:30:00 AM 20.98 69.764 0.198 6.86 1.35 3.74
8/12/2022 7:45:00 AM 20.96 69.728 0.197 6.83 1.32 3.65
8/12/2022 8:00:00 AM 20.93 69.674 0.198 6.84 1.42 3.59
8/12/2022 8:15:00 AM 20.9 69.62 0.197 6.88 1.4 3.82
8/12/2022 8:30:00 AM 20.88 69.584 0.198 6.89 1.56 3.93
8/12/2022 8:45:00 AM 20.86 69.548 0.198 6.92 1.7 4.06
8/12/2022 9:00:00 AM 20.9 69.62 0.197 6.87 1.55 3.74
8/12/2022 9:15:00 AM 20.9 69.62 0.198 6.9 1.78 3.89
8/12/2022 9:30:00 AM 20.96 69.728 0.197 6.84 1.43 3.77
8/12/2022 9:45:00 AM 20.98 69.764 0.197 6.85 1.47 3.68
8/12/2022 10:00:00 AM 21.05 69.89 0.196 6.82 1.42 3.62
8/12/2022 10:15:00 AM 21.06 69.908 0.197 6.86 1.49 3.79
8/12/2022 10:30:00 AM 21.08 69.944 0.198 6.85 1.66 3.79
8/12/2022 10:45:00 AM 21.18 70.124 0.197 6.83 1.38 3.67
8/12/2022 11:00:00 AM 21.3 70.34 0.197 6.81 1.31 3.84
8/12/2022 11:15:00 AM 21.26 70.268 0.197 6.84 1.77 3.87
8/12/2022 11:30:00 AM 21.45 70.61 0.196 6.81 1.36 3.92
8/12/2022 11:45:00 AM 21.51 70.718 0.196 6.8 1.32 3.95
8/12/2022 12:00:00 PM 21.52 70.736 0.196 6.82 1.41 4.22
8/12/2022 12:15:00 PM 21.59 70.862 0.197 6.82 1.36 4.24
8/12/2022 12:30:00 PM 21.66 70.988 0.197 6.86 1.59 4.4
8/12/2022 12:45:00 PM 21.8 71.24 0.196 6.84 1.27 4.47
8/12/2022 1:00:00 PM 21.89 71.402 0.196 6.83 1.22 4.45
8/12/2022 1:15:00 PM 21.84 71.312 0.196 6.89 1.45 4.93
8/12/2022 1:30:00 PM 22.01 71.618 0.196 6.85 1.27 4.81
8/12/2022 1:45:00 PM 21.97 71.546 0.196 6.86 1.35 4.87
8/12/2022 2:00:00 PM 21.92 71.456 0.196 6.88 1.62 5.1
8/12/2022 2:15:00 PM 21.92 71.456 0.196 6.89 1.55 5.1
8/12/2022 2:30:00 PM 21.97 71.546 0.196 6.89 1.36 5.1
8/12/2022 2:45:00 PM 21.97 71.546 0.196 6.88 3.51 5.05
8/12/2022 3:00:00 PM 22.01 71.618 0.196 6.87 1.76 4.98
8/12/2022 3:15:00 PM 21.97 71.546 0.195 6.86 1.41 5.01
8/12/2022 3:30:00 PM 21.9 71.42 0.194 6.82 1.24 4.66
8/12/2022 3:45:00 PM 21.91 71.438 0.194 6.81 1.42 4.7
8/12/2022 4:00:00 PM 21.88 71.384 0.194 6.81 1.5 4.74
8/12/2022 4:15:00 PM 21.84 71.312 0.195 6.81 1.32 4.76
8/12/2022 4:30:00 PM 21.88 71.384 0.195 6.83 2.12 4.91
8/12/2022 4:45:00 PM 21.8 71.24 0.195 6.83 1.49 4.8
8/12/2022 5:00:00 PM 21.74 71.132 0.194 6.8 1.47 4.6
8/12/2022 5:15:00 PM 21.73 71.114 0.195 6.8 1.32 4.55
8/12/2022 5:30:00 PM 21.76 71.168 0.195 6.88 1.82 5.13
8/12/2022 5:45:00 PM 21.79 71.222 0.196 6.95 1.36 5.23
8/12/2022 6:00:00 PM 21.75 71.15 0.196 6.87 1.53 4.94
8/12/2022 6:15:00 PM 21.73 71.114 0.196 6.87 1.34 4.66
8/12/2022 6:30:00 PM 21.72 71.096 0.195 6.85 1.32 4.54
8/12/2022 6:45:00 PM 21.7 71.06 0.195 6.83 1.39 4.43
8/12/2022 7:00:00 PM 21.68 71.024 0.195 6.82 1.38 4.25
8/12/2022 7:15:00 PM 21.67 71.006 0.195 6.82 1.73 4.14
8/12/2022 7:30:00 PM 21.64 70.952 0.195 6.8 1.33 4
8/12/2022 7:45:00 PM 21.64 70.952 0.195 6.8 1.38 3.88
8/12/2022 8:00:00 PM 21.64 70.952 0.196 6.8 1.2 3.82
8/12/2022 8:15:00 PM 21.64 70.952 0.196 6.8 1.19 3.69
8/12/2022 8:30:00 PM 21.63 70.934 0.196 6.8 1.18 3.73
8/12/2022 8:45:00 PM 21.63 70.934 0.196 6.8 1.37 3.65
8/12/2022 9:00:00 PM 21.63 70.934 0.196 6.8 1.42 3.47
8/12/2022 9:15:00 PM 21.62 70.916 0.196 6.82 1.37 3.58
8/12/2022 9:30:00 PM 21.61 70.898 0.197 6.84 1.47 3.67
8/12/2022 9:45:00 PM 21.6 70.88 0.197 6.84 1.49 3.57
8/12/2022 10:00:00 PM 21.58 70.844 0.197 6.85 1.37 3.59
8/12/2022 10:15:00 PM 21.55 70.79 0.197 6.85 1.33 3.55
8/12/2022 10:30:00 PM 21.53 70.754 0.197 6.85 1.24 3.48
8/12/2022 10:45:00 PM 21.51 70.718 0.197 6.85 1.23 3.43
8/12/2022 11:00:00 PM 21.47 70.646 0.197 6.84 1.29 3.37
8/12/2022 11:15:00 PM 21.45 70.61 0.197 6.84 1.22 3.36
8/12/2022 11:30:00 PM 21.4 70.52 0.197 6.85 1.3 3.37
8/12/2022 11:45:00 PM 21.39 70.502 0.197 6.84 1.26 3.37
8/13/2022 12:00:00 AM 21.36 70.448 0.198 6.85 1.23 3.37
8/13/2022 12:15:00 AM 21.31 70.358 0.198 6.85 1.25 3.39
8/13/2022 12:30:00 AM 21.29 70.32201 0.198 6.85 1.24 3.37
8/13/2022 12:45:00 AM 21.27 70.286 0.198 6.85 1.22 3.31
8/13/2022 1:00:00 AM 21.25 70.25 0.198 6.84 1.24 3.3
8/13/2022 1:15:00 AM 21.22 70.196 0.198 6.84 1.12 3.31
8/13/2022 1:30:00 AM 21.19 70.142 0.198 6.84 1.12 3.31
8/13/2022 1:45:00 AM 21.16 70.088 0.197 6.83 1.21 3.29
8/13/2022 2:00:00 AM 21.14 70.052 0.197 6.83 1.15 3.3
8/13/2022 2:15:00 AM 21.11 69.998 0.197 6.82 1.11 3.28
8/13/2022 2:30:00 AM 21.08 69.944 0.197 6.81 1.14 3.25
8/13/2022 2:45:00 AM 21.03 69.854 0.197 6.8 1.16 3.2
8/13/2022 3:00:00 AM 20.99 69.782 0.197 6.8 1.09 3.19
8/13/2022 3:15:00 AM 20.96 69.728 0.197 6.79 1.08 3.15
8/13/2022 3:30:00 AM 20.93 69.674 0.197 6.79 1.14 3.12
8/13/2022 3:45:00 AM 20.91 69.638 0.197 6.79 1.17 3.13
8/13/2022 4:00:00 AM 20.88 69.584 0.197 6.79 1.08 3.14
8/13/2022 4:15:00 AM 20.85 69.53 0.197 6.79 1.08 3.19
8/13/2022 4:30:00 AM 20.83 69.494 0.197 6.79 1.1 3.16
8/13/2022 4:45:00 AM 20.81 69.458 0.197 6.8 1.12 3.21
8/13/2022 5:00:00 AM 20.76 69.368 0.197 6.81 1.15 3.29
8/13/2022 5:15:00 AM 20.73 69.314 0.198 6.82 1.2 3.35
8/13/2022 5:30:00 AM 20.66 69.188 0.198 6.84 1.23 3.42
8/13/2022 5:45:00 AM 20.62 69.116 0.198 6.84 1.65 3.5
8/13/2022 6:00:00 AM 20.58 69.044 0.198 6.84 1.34 3.53
8/13/2022 6:15:00 AM 20.54 68.972 0.197 6.82 1.24 3.57
8/13/2022 6:30:00 AM 20.5 68.9 0.197 6.81 2.19 3.48
8/13/2022 6:45:00 AM 20.45 68.81 0.196 6.8 1.37 3.43
8/13/2022 7:00:00 AM 20.46 68.828 0.197 6.8 1.35 3.48
8/13/2022 7:15:00 AM 20.44 68.792 0.197 6.81 1.57 3.52
8/13/2022 7:30:00 AM 20.4 68.72 0.197 6.81 1.36 3.42
8/13/2022 7:45:00 AM 20.37 68.666 0.197 6.79 1.6 3.18
8/13/2022 8:00:00 AM 20.35 68.63 0.196 6.78 1.36 3.24
8/13/2022 8:15:00 AM 20.32 68.576 0.196 6.78 1.71 3.3
8/13/2022 8:30:00 AM 20.3 68.54 0.196 6.77 2.63 3.4
8/13/2022 8:45:00 AM 20.28 68.504 0.197 6.79 1.89 3.44
8/13/2022 9:00:00 AM 20.25 68.45 0.198 6.83 1.93 3.57
8/13/2022 9:15:00 AM 20.25 68.45 0.198 6.86 2.05 3.72
8/13/2022 9:30:00 AM 20.28 68.504 0.198 6.85 2.11 3.8
8/13/2022 9:45:00 AM 20.27 68.486 0.198 6.87 4.13 3.89
8/13/2022 10:00:00 AM 20.36 68.648 0.198 6.84 2.2 3.81
8/13/2022 10:15:00 AM 20.36 68.648 0.198 6.85 2.23 3.89
8/13/2022 10:30:00 AM 20.38 68.684 0.197 6.84 2.25 3.93
8/13/2022 10:45:00 AM 20.44 68.792 0.197 6.83 1.85 3.95
8/13/2022 11:00:00 AM 20.55 68.99 0.198 6.85 1.81 4.12
8/13/2022 11:15:00 AM 20.61 69.098 0.198 6.87 1.67 4.25
8/13/2022 11:30:00 AM 20.88 69.584 0.198 6.85 1.66 4.28
8/13/2022 11:45:00 AM 20.78 69.404 0.197 6.85 1.63 4.18
8/13/2022 12:00:00 PM 20.81 69.458 0.198 6.87 1.64 4.27
8/13/2022 12:15:00 PM 20.91 69.638 0.198 6.85 1.51 4.25
8/13/2022 12:30:00 PM 21.05 69.89 0.196 6.84 1.65 4.31
8/13/2022 12:45:00 PM 21.05 69.89 0.195 6.8 1.47 4.35
8/13/2022 1:00:00 PM 21.12 70.016 0.196 6.82 1.44 4.42
8/13/2022 1:15:00 PM 21.2 70.16 0.197 6.84 1.45 4.47
8/13/2022 1:30:00 PM 21.27 70.286 0.197 6.87 1.43 4.74
8/13/2022 1:45:00 PM 21.29 70.32201 0.198 6.89 1.55 4.79
8/13/2022 2:00:00 PM 21.38 70.484 0.197 6.91 1.59 5.21
8/13/2022 2:15:00 PM 21.42 70.556 0.196 6.89 6.45 5.18
8/13/2022 2:30:00 PM 21.42 70.556 0.196 6.87 2.16 4.94
8/13/2022 2:45:00 PM 21.5 70.7 0.195 6.83 1.55 4.53
8/13/2022 3:00:00 PM 21.42 70.556 0.196 6.87 1.69 4.96
8/13/2022 3:15:00 PM 21.51 70.718 0.196 6.87 1.61 5.06
8/13/2022 3:30:00 PM 21.42 70.556 0.196 6.88 1.83 5.07
8/13/2022 3:45:00 PM 21.49 70.682 0.196 6.88 1.81 5.13
8/13/2022 4:00:00 PM 21.46 70.628 0.196 6.87 1.96 5.18
8/13/2022 4:15:00 PM 21.46 70.628 0.195 6.88 1.8 5.2
8/13/2022 4:30:00 PM 21.48 70.664 0.195 6.85 1.52 5.16
8/13/2022 4:45:00 PM 21.41 70.538 0.195 6.86 1.69 5.05
8/13/2022 5:00:00 PM 21.41 70.538 0.195 6.86 1.75 5.06
8/13/2022 5:15:00 PM 21.37 70.466 0.195 6.87 1.62 5.06
8/13/2022 5:30:00 PM 21.39 70.502 0.195 6.88 1.49 5.14
8/13/2022 5:45:00 PM 21.42 70.556 0.195 6.88 1.63 5.08
8/13/2022 6:00:00 PM 21.36 70.448 0.195 6.87 2.01 4.87
8/13/2022 6:15:00 PM 21.29 70.32201 0.196 6.9 1.96 5.08
8/13/2022 6:30:00 PM 21.33 70.394 0.196 6.89 1.69 5.07
8/13/2022 6:45:00 PM 21.36 70.448 0.195 6.87 1.7 4.77
8/13/2022 7:00:00 PM 21.23 70.214 0.196 6.88 1.86 4.79
8/13/2022 7:15:00 PM 21.21 70.17799 0.195 6.85 1.61 4.7
8/13/2022 7:30:00 PM 21.22 70.196 0.195 6.83 1.7 4.54
8/13/2022 7:45:00 PM 21.17 70.106 0.195 6.85 1.78 4.57
8/13/2022 8:00:00 PM 21.13 70.034 0.196 6.9 1.99 4.71
8/13/2022 8:15:00 PM 21.13 70.034 0.196 6.89 1.99 4.75
8/13/2022 8:30:00 PM 21.14 70.052 0.196 6.86 1.63 4.55
8/13/2022 8:45:00 PM 21.12 70.016 0.196 6.84 1.46 4.19
8/13/2022 9:00:00 PM 21.07 69.926 0.196 6.81 1.35 3.78
8/13/2022 9:15:00 PM 21.04 69.872 0.196 6.79 1.35 3.5
8/13/2022 9:30:00 PM 21.04 69.872 0.196 6.81 1.49 3.45
8/13/2022 9:45:00 PM 21.02 69.836 0.196 6.81 1.37 3.45
8/13/2022 10:00:00 PM 21.02 69.836 0.196 6.81 1.33 3.44
8/13/2022 10:15:00 PM 21 69.8 0.197 6.81 1.32 3.43
8/13/2022 10:30:00 PM 20.98 69.764 0.196 6.8 1.4 3.36
8/13/2022 10:45:00 PM 20.97 69.746 0.196 6.79 1.79 3.26
8/13/2022 11:00:00 PM 20.95 69.71 0.196 6.77 1.26 3.17
8/13/2022 11:15:00 PM 20.94 69.692 0.196 6.77 1.46 3.11
8/13/2022 11:30:00 PM 20.92 69.656 0.196 6.77 1.25 3.09
8/13/2022 11:45:00 PM 20.9 69.62 0.196 6.77 1.21 3.09
8/14/2022 12:00:00 AM 20.88 69.584 0.196 6.76 1.28 3.09
8/14/2022 12:15:00 AM 20.87 69.566 0.196 6.77 1.29 3.11
8/14/2022 12:30:00 AM 20.84 69.512 0.196 6.77 1.27 3.13
8/14/2022 12:45:00 AM 20.82 69.476 0.196 6.76 1.31 3.09
8/14/2022 1:00:00 AM 20.81 69.458 0.196 6.77 1.24 3.1
8/14/2022 1:15:00 AM 20.79 69.422 0.196 6.77 1.19 3.11
8/14/2022 1:30:00 AM 20.77 69.386 0.196 6.77 1.34 3.13
8/14/2022 1:45:00 AM 20.74 69.332 0.196 6.77 1.36 3.15
8/14/2022 2:00:00 AM 20.71 69.278 0.196 6.77 1.2 3.14
8/14/2022 2:15:00 AM 20.68 69.224 0.196 6.76 1.34 3.15
8/14/2022 2:30:00 AM 20.67 69.206 0.196 6.77 1.35 3.19
8/14/2022 2:45:00 AM 20.65 69.17 0.196 6.76 1.29 3.17
8/14/2022 3:00:00 AM 20.62 69.116 0.196 6.76 1.29 3.17
8/14/2022 3:15:00 AM 20.61 69.098 0.196 6.76 1.33 3.18
8/14/2022 3:30:00 AM 20.58 69.044 0.196 6.76 1.32 3.2
8/14/2022 3:45:00 AM 20.56 69.008 0.196 6.75 1.29 3.2
8/14/2022 4:00:00 AM 20.53 68.954 0.195 6.75 1.33 3.2
8/14/2022 4:15:00 AM 20.51 68.918 0.195 6.74 1.33 3.2
8/14/2022 4:30:00 AM 20.49 68.882 0.195 6.72 1.25 3.19
8/14/2022 4:45:00 AM 20.45 68.81 0.195 6.72 1.38 3.2
8/14/2022 5:00:00 AM 20.43 68.774 0.194 6.72 1.32 3.17
8/14/2022 5:15:00 AM 20.39 68.702 0.194 6.71 1.3 3.14
8/14/2022 5:30:00 AM 20.36 68.648 0.194 6.71 1.47 3.13
8/14/2022 5:45:00 AM 20.32 68.576 0.194 6.71 1.4 3.12
8/14/2022 6:00:00 AM 20.29 68.522 0.194 6.72 1.42 3.2
8/14/2022 6:15:00 AM 20.26 68.468 0.195 6.73 1.67 3.27
8/14/2022 6:30:00 AM 20.23 68.414 0.195 6.74 1.55 3.3
8/14/2022 6:45:00 AM 20.2 68.36 0.195 6.74 1.37 3.34
8/14/2022 7:00:00 AM 20.15 68.27 0.195 6.75 1.42 3.34
8/14/2022 7:15:00 AM 20.11 68.198 0.195 6.75 1.59 3.37
8/14/2022 7:30:00 AM 20.09 68.162 0.196 6.76 1.79 3.39
8/14/2022 7:45:00 AM 20.05 68.09 0.197 6.79 2.19 3.45
8/14/2022 8:00:00 AM 20.02 68.036 0.197 6.83 1.98 3.51
8/14/2022 8:15:00 AM 20 68 0.199 6.86 2.11 3.69
8/14/2022 8:30:00 AM 19.98 67.964 0.198 6.88 1.69 3.75
8/14/2022 8:45:00 AM 19.96 67.92799 0.199 6.9 1.81 3.8
8/14/2022 9:00:00 AM 19.97 67.946 0.199 6.88 1.86 3.78
8/14/2022 9:15:00 AM 19.97 67.946 0.197 6.86 1.68 3.73
8/14/2022 9:30:00 AM 19.98 67.964 0.197 6.86 1.8 3.78
8/14/2022 9:45:00 AM 19.98 67.964 0.198 6.88 1.87 3.89
8/14/2022 10:00:00 AM 20.02 68.036 0.197 6.85 1.95 3.9
8/14/2022 10:15:00 AM 20.11 68.198 0.198 6.85 1.81 3.93
8/14/2022 10:30:00 AM 20.16 68.288 0.198 6.87 1.99 4.05
8/14/2022 10:45:00 AM 20.22 68.396 0.198 6.88 1.87 4.16
8/14/2022 11:00:00 AM 20.34 68.612 0.198 6.87 1.98 4.23
8/14/2022 11:15:00 AM 20.37 68.666 0.198 6.88 1.68 4.23
8/14/2022 11:30:00 AM 20.46 68.828 0.198 6.88 1.81 4.26
8/14/2022 11:45:00 AM 20.57 69.026 0.197 6.88 1.7 4.26
8/14/2022 12:00:00 PM 20.68 69.224 0.197 6.87 1.56 4.23
8/14/2022 12:15:00 PM 20.77 69.386 0.198 6.87 1.6 4.23
8/14/2022 12:30:00 PM 20.82 69.476 0.198 6.87 2.13 4.3
8/14/2022 12:45:00 PM 20.91 69.638 0.197 6.86 1.78 4.36
8/14/2022 1:00:00 PM 20.87 69.566 0.197 6.87 1.76 4.42
8/14/2022 1:15:00 PM 20.94 69.692 0.197 6.9 1.54 4.8
8/14/2022 1:30:00 PM 21.05 69.89 0.197 6.89 1.73 4.71
8/14/2022 1:45:00 PM 21.02 69.836 0.197 6.9 2.04 4.96
8/14/2022 2:00:00 PM 21.04 69.872 0.197 6.9 1.78 4.98
8/14/2022 2:15:00 PM 21.07 69.926 0.197 6.91 1.83 5.12
8/14/2022 2:30:00 PM 21.05 69.89 0.197 6.92 1.85 5.24
8/14/2022 2:45:00 PM 21.01 69.818 0.197 6.95 1.83 5.43
8/14/2022 3:00:00 PM 21.04 69.872 0.197 6.94 1.93 5.56
8/14/2022 3:15:00 PM 21.07 69.926 0.196 6.92 2.04 5.45
8/14/2022 3:30:00 PM 20.98 69.764 0.197 6.93 1.71 5.5
8/14/2022 3:45:00 PM 21.09 69.962 0.197 6.94 1.84 5.59
8/14/2022 4:00:00 PM 21.14 70.052 0.197 6.95 1.79 5.67
8/14/2022 4:15:00 PM 21.1 69.98 0.196 6.94 1.82 5.58
8/14/2022 4:30:00 PM 21.09 69.962 0.196 6.92 1.63 5.53
8/14/2022 4:45:00 PM 21.03 69.854 0.196 6.94 1.82 5.58
8/14/2022 5:00:00 PM 21.02 69.836 0.196 6.94 1.79 5.6
8/14/2022 5:15:00 PM 21.15 70.07 0.195 6.91 1.63 5.41
8/14/2022 5:30:00 PM 20.92 69.656 0.197 6.92 2.02 5.25
8/14/2022 5:45:00 PM 20.99 69.782 0.196 6.9 4.71 5.25
8/14/2022 6:00:00 PM 21.07 69.926 0.195 6.89 1.69 5.11
8/14/2022 6:15:00 PM 20.87 69.566 0.197 6.95 1.97 5.33
8/14/2022 6:30:00 PM 20.95 69.71 0.196 6.92 1.99 5.22
8/14/2022 6:45:00 PM 20.96 69.728 0.196 6.9 1.84 5.17
8/14/2022 7:00:00 PM 20.92 69.656 0.196 6.93 1.78 5.19
8/14/2022 7:15:00 PM 20.9 69.62 0.197 6.94 1.72 5.23
8/14/2022 7:30:00 PM 20.82 69.476 0.197 6.97 1.99 5.27
8/14/2022 7:45:00 PM 20.8 69.44 0.198 6.97 2.31 5.27
8/14/2022 8:00:00 PM 20.79 69.422 0.198 6.98 1.95 5.24
8/14/2022 8:15:00 PM 20.77 69.386 0.198 6.99 1.95 5.23
8/14/2022 8:30:00 PM 20.72 69.296 0.198 7.01 2.21 5.13
8/14/2022 8:45:00 PM 20.68 69.224 0.198 7.03 2.22 5.23
8/14/2022 9:00:00 PM 20.65 69.17 0.198 7.05 2.05 5.24
8/14/2022 9:15:00 PM 20.64 69.152 0.198 7.05 2.21 5.23
8/14/2022 9:30:00 PM 20.62 69.116 0.197 7.02 1.89 4.93
8/14/2022 9:45:00 PM 20.58 69.044 0.198 7.04 1.56 4.94
8/14/2022 10:00:00 PM 20.56 69.008 0.199 7.06 1.99 4.88
8/14/2022 10:15:00 PM 20.54 68.972 0.199 7.08 1.74 4.77
8/14/2022 10:30:00 PM 20.51 68.918 0.199 7.09 1.71 4.6
8/14/2022 10:45:00 PM 20.5 68.9 0.2 7.09 1.58 4.48
8/14/2022 11:00:00 PM 20.5 68.9 0.2 7.09 1.67 4.41
8/14/2022 11:15:00 PM 20.5 68.9 0.2 7.1 1.66 4.31
8/14/2022 11:30:00 PM 20.49 68.882 0.2 7.1 1.63 4.2
8/14/2022 11:45:00 PM 20.48 68.864 0.2 7.11 1.55 4.08
8/15/2022 12:00:00 AM 20.48 68.864 0.2 7.11 1.47 3.97
8/15/2022 12:15:00 AM 20.48 68.864 0.199 7.06 1.57 3.89
8/15/2022 12:30:00 AM 20.47 68.846 0.198 6.96 1.62 3.71
8/15/2022 12:45:00 AM 20.48 68.864 0.197 6.9 1.59 3.51
8/15/2022 1:00:00 AM 20.46 68.828 0.195 6.85 1.64 3.34
8/15/2022 1:15:00 AM 20.46 68.828 0.195 6.79 1.61 3.21
8/15/2022 1:30:00 AM 20.44 68.792 0.195 6.78 1.77 3.17
8/15/2022 1:45:00 AM 20.43 68.774 0.195 6.77 1.71 3.12
8/15/2022 2:00:00 AM 20.42 68.756 0.196 6.76 1.87 3.07
8/15/2022 2:15:00 AM 20.4 68.72 0.196 6.76 1.96 3.02
8/15/2022 2:30:00 AM 20.4 68.72 0.196 6.76 1.95 2.98
8/15/2022 2:45:00 AM 20.39 68.702 0.197 6.77 1.81 2.93
8/15/2022 3:00:00 AM 20.38 68.684 0.196 6.76 1.84 2.91
8/15/2022 3:15:00 AM 20.38 68.684 0.195 6.75 1.78 2.96
8/15/2022 3:30:00 AM 20.37 68.666 0.195 6.74 1.58 3.01
8/15/2022 3:45:00 AM 20.35 68.63 0.195 6.74 1.63 2.99
8/15/2022 4:00:00 AM 20.34 68.612 0.195 6.74 1.63 2.98
8/15/2022 4:15:00 AM 20.34 68.612 0.195 6.74 1.54 3.01
8/15/2022 4:30:00 AM 20.32 68.576 0.195 6.74 1.66 2.99
8/15/2022 4:45:00 AM 20.3 68.54 0.195 6.74 1.6 2.97
8/15/2022 5:00:00 AM 20.3 68.54 0.194 6.73 1.61 2.97
8/15/2022 5:15:00 AM 20.29 68.522 0.195 6.73 1.7 2.97
8/15/2022 5:30:00 AM 20.27 68.486 0.195 6.73 1.67 2.95
8/15/2022 5:45:00 AM 20.26 68.468 0.195 6.72 1.72 2.86
8/15/2022 6:00:00 AM 20.24 68.432 0.195 6.73 1.68 2.91
8/15/2022 6:15:00 AM 20.22 68.396 0.195 6.73 1.77 2.92
8/15/2022 6:30:00 AM 20.2 68.36 0.196 6.74 2.13 2.89
8/15/2022 6:45:00 AM 20.19 68.342 0.196 6.75 2.25 2.83
8/15/2022 7:00:00 AM 20.18 68.324 0.196 6.75 2.03 2.8
8/15/2022 7:15:00 AM 20.17 68.306 0.196 6.75 2.12 2.78
8/15/2022 7:30:00 AM 20.16 68.288 0.196 6.75 2.13 2.78
8/15/2022 7:45:00 AM 20.15 68.27 0.196 6.75 1.96 2.76
8/15/2022 8:00:00 AM 20.16 68.288 0.196 6.75 1.9 2.72
8/15/2022 8:15:00 AM 20.17 68.306 0.197 6.75 2.19 2.58
8/15/2022 8:30:00 AM 20.17 68.306 0.197 6.75 1.99 2.5
8/15/2022 8:45:00 AM 20.17 68.306 0.197 6.76 1.99 2.44
8/15/2022 9:00:00 AM 20.19 68.342 0.198 6.79 1.93 2.59
8/15/2022 9:15:00 AM 20.21 68.378 0.197 6.81 2.23 2.72
8/15/2022 9:30:00 AM 20.23 68.414 0.197 6.8 2.29 2.79
8/15/2022 9:45:00 AM 20.26 68.468 0.198 6.82 1.86 2.99
8/15/2022 10:00:00 AM 20.31 68.558 0.198 6.82 2.18 3.07
8/15/2022 10:15:00 AM 20.37 68.666 0.198 6.84 1.84 3.17
8/15/2022 10:30:00 AM 20.47 68.846 0.198 6.85 1.7 3.31
8/15/2022 10:45:00 AM 20.5 68.9 0.198 6.86 1.8 3.36
8/15/2022 11:00:00 AM 20.63 69.134 0.197 6.84 1.72 3.42
8/15/2022 11:15:00 AM 20.73 69.314 0.197 6.83 2.02 3.56
8/15/2022 11:30:00 AM 20.8 69.44 0.197 6.83 1.69 3.65
8/15/2022 11:45:00 AM 20.88 69.584 0.198 6.87 1.53 4.53
8/15/2022 12:00:00 PM 20.86 69.548 0.199 6.92 1.49 4.33
8/15/2022 12:15:00 PM 20.87 69.566 0.198 6.93 1.53 4.43
8/15/2022 12:30:00 PM 20.86 69.548 0.198 6.94 1.42 4.55
8/15/2022 12:45:00 PM 20.86 69.548 0.198 6.95 1.45 4.63
8/15/2022 1:00:00 PM 20.86 69.548 0.199 6.95 1.55 4.51
8/15/2022 1:15:00 PM 20.84 69.512 0.198 6.94 1.88 4.39
8/15/2022 1:30:00 PM 20.82 69.476 0.199 6.95 1.93 4.48
8/15/2022 1:45:00 PM 20.84 69.512 0.199 6.94 1.77 4.46
8/15/2022 2:00:00 PM 20.85 69.53 0.199 6.95 1.76 4.48
8/15/2022 2:15:00 PM 20.93 69.674 0.199 6.94 1.74 4.38
8/15/2022 2:30:00 PM 20.99 69.782 0.199 6.93 1.69 4.26
8/15/2022 2:45:00 PM 20.99 69.782 0.198 6.92 1.53 4.27
8/15/2022 3:00:00 PM 21.02 69.836 0.198 6.9 1.66 4.09
8/15/2022 3:15:00 PM 21.04 69.872 0.197 6.88 1.56 4.17
8/15/2022 3:30:00 PM 21 69.8 0.196 6.85 1.55 4.3
8/15/2022 3:45:00 PM 21 69.8 0.196 6.85 1.57 4.39
8/15/2022 4:00:00 PM 20.94 69.692 0.196 6.85 1.66 4.28
8/15/2022 4:15:00 PM 20.93 69.674 0.197 6.87 1.89 4.37
8/15/2022 4:30:00 PM 20.91 69.638 0.198 6.89 1.75 4.34
8/15/2022 4:45:00 PM 20.89 69.602 0.198 6.89 1.78 4.29
8/15/2022 5:00:00 PM 20.84 69.512 0.198 6.92 1.96 4.39
8/15/2022 5:15:00 PM 20.83 69.494 0.198 6.92 2.13 4.4
8/15/2022 5:30:00 PM 20.81 69.458 0.199 6.92 2.16 4.34
8/15/2022 5:45:00 PM 20.82 69.476 0.198 6.93 2.19 4.3
8/15/2022 6:00:00 PM 20.8 69.44 0.198 6.93 1.79 4.33
8/15/2022 6:15:00 PM 20.79 69.422 0.198 6.94 1.6 4.37
8/15/2022 6:30:00 PM 20.78 69.404 0.199 6.94 1.94 4.35
8/15/2022 6:45:00 PM 20.75 69.35 0.199 6.95 1.91 4.32
8/15/2022 7:00:00 PM 20.74 69.332 0.199 6.96 1.84 4.33
8/15/2022 7:15:00 PM 20.71 69.278 0.2 6.97 2.88 4.19
8/15/2022 7:30:00 PM 20.7 69.26 0.2 6.97 3.15 4.08
8/15/2022 7:45:00 PM 20.66 69.188 0.2 6.99 2.49 4.08
8/15/2022 8:00:00 PM 20.66 69.188 0.2 6.96 2.32 3.9
8/15/2022 8:15:00 PM 20.64 69.152 0.2 6.95 1.92 3.75
8/15/2022 8:30:00 PM 20.59 69.062 0.2 6.93 1.43 3.53
8/15/2022 8:45:00 PM 20.61 69.098 0.2 6.92 1.58 3.32
8/15/2022 9:00:00 PM 20.61 69.098 0.2 6.94 2.3 3.38
8/15/2022 9:15:00 PM 20.59 69.062 0.201 6.94 2.54 3.2
8/15/2022 9:30:00 PM 20.58 69.044 0.199 6.89 1.95 3.1
8/15/2022 9:45:00 PM 20.58 69.044 0.198 6.86 2.23 3.07
8/15/2022 10:00:00 PM 20.52 68.936 0.201 6.96 2.45 3.16
8/15/2022 10:15:00 PM 20.53 68.954 0.201 6.96 2.21 3.14
8/15/2022 10:30:00 PM 20.5 68.9 0.202 6.99 1.98 3.11
8/15/2022 10:45:00 PM 20.47 68.846 0.202 7.01 1.85 3.1
8/15/2022 11:00:00 PM 20.45 68.81 0.202 7.02 1.66 3.08
8/15/2022 11:15:00 PM 20.45 68.81 0.202 7.02 1.66 3.01
8/15/2022 11:30:00 PM 20.46 68.828 0.202 6.98 1.55 2.99
8/15/2022 11:45:00 PM 20.44 68.792 0.203 7 1.71 2.93
8/16/2022 12:00:00 AM 20.43 68.774 0.203 7.03 1.69 2.83
8/16/2022 12:15:00 AM 20.43 68.774 0.202 7.01 1.49 2.83
8/16/2022 12:30:00 AM 20.41 68.738 0.203 7.01 1.44 2.84
8/16/2022 12:45:00 AM 20.4 68.72 0.203 7 1.46 2.86
8/16/2022 1:00:00 AM 20.39 68.702 0.203 7 1.47 2.84
8/16/2022 1:15:00 AM 20.39 68.702 0.203 6.98 1.4 2.8
8/16/2022 1:30:00 AM 20.38 68.684 0.203 6.97 1.44 2.77
8/16/2022 1:45:00 AM 20.38 68.684 0.203 6.97 1.45 2.69
8/16/2022 2:00:00 AM 20.38 68.684 0.203 6.98 1.53 2.6
8/16/2022 2:15:00 AM 20.37 68.666 0.204 6.98 1.76 2.49
8/16/2022 2:30:00 AM 20.37 68.666 0.203 6.97 1.84 2.4
8/16/2022 2:45:00 AM 20.36 68.648 0.203 6.95 1.84 2.39
8/16/2022 3:00:00 AM 20.36 68.648 0.202 6.94 1.82 2.33
8/16/2022 3:15:00 AM 20.35 68.63 0.202 6.92 1.89 2.3
8/16/2022 3:30:00 AM 20.34 68.612 0.201 6.89 1.85 2.35
8/16/2022 3:45:00 AM 20.34 68.612 0.2 6.86 1.97 2.4
8/16/2022 4:00:00 AM 20.33 68.594 0.2 6.86 1.78 2.37
8/16/2022 4:15:00 AM 20.33 68.594 0.2 6.84 1.81 2.34
8/16/2022 4:30:00 AM 20.32 68.576 0.2 6.84 1.78 2.36
8/16/2022 4:45:00 AM 20.31 68.558 0.199 6.83 1.94 2.4
8/16/2022 5:00:00 AM 20.31 68.558 0.199 6.82 1.78 2.44
8/16/2022 5:15:00 AM 20.3 68.54 0.198 6.81 1.83 2.5
8/16/2022 5:30:00 AM 20.29 68.522 0.198 6.81 2.04 2.49
8/16/2022 5:45:00 AM 20.28 68.504 0.198 6.8 1.81 2.5
8/16/2022 6:00:00 AM 20.27 68.486 0.198 6.79 1.72 2.5
8/16/2022 6:15:00 AM 20.26 68.468 0.198 6.79 1.92 2.44
8/16/2022 6:30:00 AM 20.25 68.45 0.198 6.78 1.94 2.44
8/16/2022 6:45:00 AM 20.23 68.414 0.198 6.79 2.02 2.5
8/16/2022 7:00:00 AM 20.22 68.396 0.198 6.79 1.95 2.55
8/16/2022 7:15:00 AM 20.22 68.396 0.198 6.79 2.03 2.55
8/16/2022 7:30:00 AM 20.22 68.396 0.197 6.79 2.38 2.56
8/16/2022 7:45:00 AM 20.22 68.396 0.198 6.79 3 2.54
8/16/2022 8:00:00 AM 20.22 68.396 0.198 6.79 2.82 2.56
8/16/2022 8:15:00 AM 20.23 68.414 0.198 6.79 2.64 2.56
8/16/2022 8:30:00 AM 20.24 68.432 0.198 6.79 2.26 2.3
8/16/2022 8:45:00 AM 20.25 68.45 0.198 6.8 2.2 2.39
8/16/2022 9:00:00 AM 20.29 68.522 0.199 6.84 1.77 2.52
8/16/2022 9:15:00 AM 20.32 68.576 0.199 6.85 1.89 2.63
8/16/2022 9:30:00 AM 20.35 68.63 0.2 6.86 1.77 2.7
8/16/2022 9:45:00 AM 20.4 68.72 0.2 6.86 1.93 2.92
8/16/2022 10:00:00 AM 20.5 68.9 0.2 6.87 1.91 3.09
8/16/2022 10:15:00 AM 20.57 69.026 0.198 6.86 1.51 3.11
8/16/2022 10:30:00 AM 20.63 69.134 0.198 6.85 1.65 3.17
8/16/2022 10:45:00 AM 20.7 69.26 0.198 6.85 1.64 3.2
8/16/2022 11:00:00 AM 20.84 69.512 0.197 6.83 1.58 3.56
8/16/2022 11:15:00 AM 20.88 69.584 0.197 6.83 1.41 3.48
8/16/2022 11:30:00 AM 21.02 69.836 0.196 6.8 1.73 3.57
8/16/2022 11:45:00 AM 21.17 70.106 0.197 6.82 1.43 3.79
8/16/2022 12:00:00 PM 21.23 70.214 0.198 6.84 1.36 3.92
8/16/2022 12:15:00 PM 21.28 70.304 0.198 6.86 1.44 4.04
8/16/2022 12:30:00 PM 21.37 70.466 0.198 6.87 1.83 3.99
8/16/2022 12:45:00 PM 21.39 70.502 0.198 6.88 1.58 4.14
8/16/2022 1:00:00 PM 21.42 70.556 0.199 6.89 1.57 4.22
8/16/2022 1:15:00 PM 21.46 70.628 0.199 6.91 1.46 4.23
8/16/2022 1:30:00 PM 21.39 70.502 0.198 6.91 1.5 4.31
8/16/2022 1:45:00 PM 21.38 70.484 0.198 6.91 1.6 4.34
8/16/2022 2:00:00 PM 21.39 70.502 0.198 6.91 1.79 4.35
8/16/2022 2:15:00 PM 21.34 70.412 0.198 6.89 1.8 4.31
8/16/2022 2:30:00 PM 21.34 70.412 0.198 6.89 1.86 4.23
8/16/2022 2:45:00 PM 21.45 70.61 0.198 6.91 2.86 4.5
8/16/2022 3:00:00 PM 21.48 70.664 0.198 6.9 2.29 4.44
8/16/2022 3:15:00 PM 21.51 70.718 0.198 6.89 1.67 4.43
8/16/2022 3:30:00 PM 21.51 70.718 0.198 6.89 1.81 4.45
8/16/2022 3:45:00 PM 21.47 70.646 0.196 6.84 1.7 4.26
8/16/2022 4:00:00 PM 21.45 70.61 0.196 6.82 1.98 4.04
8/16/2022 4:15:00 PM 21.47 70.646 0.195 6.8 1.58 3.92
8/16/2022 4:30:00 PM 21.46 70.628 0.195 6.79 1.53 3.85
8/16/2022 4:45:00 PM 21.45 70.61 0.195 6.78 1.43 3.85
8/16/2022 5:00:00 PM 21.43 70.574 0.195 6.76 1.59 3.67
8/16/2022 5:15:00 PM 21.39 70.502 0.196 6.8 1.44 3.83
8/16/2022 5:30:00 PM 21.45 70.61 0.195 6.78 1.39 3.84
8/16/2022 5:45:00 PM 21.41 70.538 0.196 6.79 2.01 3.88
8/16/2022 6:00:00 PM 21.31 70.358 0.197 6.85 2.02 4.12
8/16/2022 6:15:00 PM 21.32 70.376 0.197 6.83 1.72 4.09
8/16/2022 6:30:00 PM 21.31 70.358 0.197 6.83 1.65 4.01
8/16/2022 6:45:00 PM 21.25 70.25 0.196 6.82 1.7 4.2
8/16/2022 7:00:00 PM 21.25 70.25 0.196 6.82 1.84 4.13
8/16/2022 7:15:00 PM 21.17 70.106 0.195 6.78 1.85 3.87
8/16/2022 7:30:00 PM 21.16 70.088 0.195 6.76 1.89 3.65
8/16/2022 7:45:00 PM 21.15 70.07 0.193 6.71 1.68 3.31
8/16/2022 8:00:00 PM 21.13 70.034 0.194 6.69 1.86 3.08
8/16/2022 8:15:00 PM 21.08 69.944 0.193 6.69 1.67 3.08
8/16/2022 8:30:00 PM 21.02 69.836 0.194 6.69 1.56 3.09
8/16/2022 8:45:00 PM 21.02 69.836 0.194 6.69 1.45 3.01
8/16/2022 9:00:00 PM 20.99 69.782 0.196 6.72 1.52 3.04
8/16/2022 9:15:00 PM 20.96 69.728 0.196 6.75 1.55 3.01
8/16/2022 9:30:00 PM 20.93 69.674 0.197 6.77 1.54 3
8/16/2022 9:45:00 PM 20.89 69.602 0.198 6.8 1.37 2.74
8/16/2022 10:00:00 PM 20.87 69.566 0.198 6.8 1.34 2.6
8/16/2022 10:15:00 PM 20.85 69.53 0.198 6.8 1.47 2.58
8/16/2022 10:30:00 PM 20.84 69.512 0.198 6.8 1.52 2.66
8/16/2022 10:45:00 PM 20.82 69.476 0.197 6.76 1.49 2.7
8/16/2022 11:00:00 PM 20.79 69.422 0.196 6.74 1.41 2.62
8/16/2022 11:15:00 PM 20.76 69.368 0.195 6.72 1.42 2.58
8/16/2022 11:30:00 PM 20.72 69.296 0.195 6.7 1.42 2.58
8/16/2022 11:45:00 PM 20.69 69.242 0.194 6.69 1.36 2.58
8/17/2022 12:00:00 AM 20.67 69.206 0.194 6.68 1.3 2.55
8/17/2022 12:15:00 AM 20.65 69.17 0.194 6.68 1.29 2.54
8/17/2022 12:30:00 AM 20.64 69.152 0.193 6.67 1.29 2.54
8/17/2022 12:45:00 AM 20.63 69.134 0.194 6.67 1.27 2.54
8/17/2022 1:00:00 AM 20.62 69.116 0.194 6.68 1.29 2.52
8/17/2022 1:15:00 AM 20.62 69.116 0.194 6.69 1.31 2.53
8/17/2022 1:30:00 AM 20.61 69.098 0.195 6.69 1.43 2.5
8/17/2022 1:45:00 AM 20.59 69.062 0.194 6.7 1.3 2.52
8/17/2022 2:00:00 AM 20.58 69.044 0.194 6.7 1.26 2.58
8/17/2022 2:15:00 AM 20.57 69.026 0.194 6.7 1.34 2.62
8/17/2022 2:30:00 AM 20.56 69.008 0.194 6.7 1.28 2.62
8/17/2022 2:45:00 AM 20.54 68.972 0.194 6.7 1.28 2.62
8/17/2022 3:00:00 AM 20.52 68.936 0.194 6.7 1.35 2.67
8/17/2022 3:15:00 AM 20.51 68.918 0.194 6.7 1.29 2.66
8/17/2022 3:30:00 AM 20.49 68.882 0.194 6.7 1.34 2.69
8/17/2022 3:45:00 AM 20.48 68.864 0.194 6.7 1.33 2.69
8/17/2022 4:00:00 AM 20.46 68.828 0.194 6.7 1.5 2.72
8/17/2022 4:15:00 AM 20.45 68.81 0.194 6.7 1.3 2.75
8/17/2022 4:30:00 AM 20.44 68.792 0.194 6.7 1.36 2.74
8/17/2022 4:45:00 AM 20.43 68.774 0.194 6.69 1.37 2.52
8/17/2022 5:00:00 AM 20.42 68.756 0.194 6.69 1.47 2.53
8/17/2022 5:15:00 AM 20.4 68.72 0.194 6.69 1.49 2.45
8/17/2022 5:30:00 AM 20.39 68.702 0.194 6.69 1.49 2.43
8/17/2022 5:45:00 AM 20.38 68.684 0.193 6.68 1.47 2.44
8/17/2022 6:00:00 AM 20.37 68.666 0.193 6.68 1.44 2.45
8/17/2022 6:15:00 AM 20.35 68.63 0.193 6.68 1.39 2.42
8/17/2022 6:30:00 AM 20.34 68.612 0.193 6.69 1.56 2.43
8/17/2022 6:45:00 AM 20.33 68.594 0.194 6.7 1.59 2.53
8/17/2022 7:00:00 AM 20.31 68.558 0.194 6.7 1.66 2.53
8/17/2022 7:15:00 AM 20.29 68.522 0.193 6.7 1.51 2.5
8/17/2022 7:30:00 AM 20.28 68.504 0.193 6.69 1.52 2.52
8/17/2022 7:45:00 AM 20.27 68.486 0.194 6.7 2.11 2.61
8/17/2022 8:00:00 AM 20.24 68.432 0.195 6.71 3.18 2.69
8/17/2022 8:15:00 AM 20.23 68.414 0.195 6.72 2.57 2.66
8/17/2022 8:30:00 AM 20.23 68.414 0.195 6.72 2.83 2.48
8/17/2022 8:45:00 AM 20.24 68.432 0.195 6.72 2.7 2.3
8/17/2022 9:00:00 AM 20.25 68.45 0.195 6.71 2.58 2.24
8/17/2022 9:15:00 AM 20.27 68.486 0.196 6.73 2.49 2.48
8/17/2022 9:30:00 AM 20.29 68.522 0.197 6.76 2.04 2.72
8/17/2022 9:45:00 AM 20.31 68.558 0.197 6.77 1.98 2.85
8/17/2022 10:00:00 AM 20.35 68.63 0.197 6.78 1.96 2.94
8/17/2022 10:15:00 AM 20.39 68.702 0.198 6.81 1.72 3.13
8/17/2022 10:30:00 AM 20.44 68.792 0.199 6.84 1.67 3.32
8/17/2022 10:45:00 AM 20.49 68.882 0.199 6.87 1.68 3.44
8/17/2022 11:00:00 AM 20.49 68.882 0.199 6.88 1.67 3.55
8/17/2022 11:15:00 AM 20.51 68.918 0.199 6.88 1.98 3.58
8/17/2022 11:30:00 AM 20.52 68.936 0.199 6.88 1.8 3.64
8/17/2022 11:45:00 AM 20.55 68.99 0.199 6.9 1.67 3.84
8/17/2022 12:00:00 PM 20.56 69.008 0.2 6.93 1.51 3.96
8/17/2022 12:15:00 PM 20.56 69.008 0.2 6.95 1.74 4.11
8/17/2022 12:30:00 PM 20.6 69.08 0.2 6.94 1.49 4.13
8/17/2022 12:45:00 PM 20.64 69.152 0.2 6.94 1.51 4.15
8/17/2022 1:00:00 PM 20.73 69.314 0.199 6.91 1.6 4.14
8/17/2022 1:15:00 PM 20.82 69.476 0.198 6.9 1.69 4.23
8/17/2022 1:30:00 PM 20.85 69.53 0.199 6.9 1.64 4.32
8/17/2022 1:45:00 PM 20.91 69.638 0.199 6.92 1.92 4.44
8/17/2022 2:00:00 PM 20.93 69.674 0.199 6.92 1.72 4.47
8/17/2022 2:15:00 PM 21.13 70.034 0.198 6.86 1.77 4.37
8/17/2022 2:30:00 PM 21.1 69.98 0.198 6.88 1.69 4.45
8/17/2022 2:45:00 PM 21.19 70.142 0.196 6.85 1.52 4.25
8/17/2022 3:00:00 PM 21.19 70.142 0.196 6.85 1.72 4.43
8/17/2022 3:15:00 PM 21.19 70.142 0.197 6.87 1.63 4.55
8/17/2022 3:30:00 PM 21.25 70.25 0.197 6.87 1.78 4.67
8/17/2022 3:45:00 PM 21.33 70.394 0.196 6.85 1.65 4.54
8/17/2022 4:00:00 PM 21.3 70.34 0.198 6.87 1.76 4.66
8/17/2022 4:15:00 PM 21.27 70.286 0.195 6.84 1.58 4.58
8/17/2022 4:30:00 PM 21.29 70.32201 0.194 6.79 1.68 4.36
8/17/2022 4:45:00 PM 21.34 70.412 0.193 6.74 1.59 4.07
8/17/2022 5:00:00 PM 21.33 70.394 0.193 6.73 1.44 4.05
8/17/2022 5:15:00 PM 21.23 70.214 0.195 6.79 1.62 4.35
8/17/2022 5:30:00 PM 21.26 70.268 0.195 6.8 1.69 4.52
8/17/2022 5:45:00 PM 21.28 70.304 0.195 6.79 1.6 4.44
8/17/2022 6:00:00 PM 21.25 70.25 0.196 6.83 1.8 4.6
8/17/2022 6:15:00 PM 21.21 70.17799 0.195 6.81 1.64 4.57
8/17/2022 6:30:00 PM 21.18 70.124 0.196 6.82 1.92 4.51
8/17/2022 6:45:00 PM 21.12 70.016 0.198 6.88 2.07 4.66
8/17/2022 7:00:00 PM 21.05 69.89 0.198 6.91 1.69 4.71
8/17/2022 7:15:00 PM 21.03 69.854 0.197 6.9 1.66 4.34
8/17/2022 7:30:00 PM 20.99 69.782 0.198 6.88 1.65 4.23
8/17/2022 7:45:00 PM 20.97 69.746 0.197 6.86 1.56 4.1
8/17/2022 8:00:00 PM 20.89 69.602 0.197 6.84 1.73 3.89
8/17/2022 8:15:00 PM 20.88 69.584 0.196 6.8 1.54 3.76
8/17/2022 8:30:00 PM 20.83 69.494 0.195 6.76 1.53 3.37
8/17/2022 8:45:00 PM 20.79 69.422 0.194 6.74 1.34 3.23
8/17/2022 9:00:00 PM 20.76 69.368 0.194 6.71 1.41 3.08
8/17/2022 9:15:00 PM 20.72 69.296 0.194 6.7 1.35 2.93
8/17/2022 9:30:00 PM 20.69 69.242 0.194 6.7 1.37 2.86
8/17/2022 9:45:00 PM 20.65 69.17 0.194 6.69 1.7 2.84
8/17/2022 10:00:00 PM 20.62 69.116 0.194 6.7 1.41 2.84
8/17/2022 10:15:00 PM 20.58 69.044 0.194 6.69 1.38 2.84
8/17/2022 10:30:00 PM 20.55 68.99 0.195 6.71 1.52 2.85
8/17/2022 10:45:00 PM 20.52 68.936 0.195 6.72 1.5 2.86
8/17/2022 11:00:00 PM 20.5 68.9 0.194 6.71 1.41 2.83
8/17/2022 11:15:00 PM 20.48 68.864 0.194 6.71 1.44 2.78
8/17/2022 11:30:00 PM 20.45 68.81 0.194 6.7 1.36 2.77
8/17/2022 11:45:00 PM 20.44 68.792 0.194 6.7 1.35 2.76
8/18/2022 12:00:00 AM 20.41 68.738 0.194 6.7 1.38 2.75
8/18/2022 12:15:00 AM 20.39 68.702 0.194 6.71 1.35 2.76
8/18/2022 12:30:00 AM 20.39 68.702 0.194 6.71 1.3 2.77
8/18/2022 12:45:00 AM 20.38 68.684 0.194 6.71 1.33 2.76
8/18/2022 1:00:00 AM 20.38 68.684 0.194 6.72 1.32 2.77
8/18/2022 1:15:00 AM 20.37 68.666 0.194 6.72 1.33 2.8
8/18/2022 1:30:00 AM 20.36 68.648 0.194 6.71 1.42 2.79
8/18/2022 1:45:00 AM 20.35 68.63 0.195 6.72 1.49 2.78
8/18/2022 2:00:00 AM 20.33 68.594 0.195 6.73 1.43 2.8
8/18/2022 2:15:00 AM 20.32 68.576 0.196 6.73 1.5 2.78
8/18/2022 2:30:00 AM 20.31 68.558 0.195 6.73 1.51 2.78
8/18/2022 2:45:00 AM 20.31 68.558 0.195 6.73 1.53 2.78
8/18/2022 3:00:00 AM 20.3 68.54 0.195 6.72 1.46 2.79
8/18/2022 3:15:00 AM 20.3 68.54 0.194 6.72 1.6 2.77
8/18/2022 3:30:00 AM 20.29 68.522 0.194 6.72 1.77 2.76
8/18/2022 3:45:00 AM 20.28 68.504 0.193 6.71 1.68 2.79
8/18/2022 4:00:00 AM 20.27 68.486 0.193 6.71 1.36 2.86
8/18/2022 4:15:00 AM 20.27 68.486 0.193 6.71 1.53 2.86
8/18/2022 4:30:00 AM 20.27 68.486 0.193 6.71 1.48 2.87
8/18/2022 4:45:00 AM 20.24 68.432 0.193 6.71 1.55 2.91
8/18/2022 5:00:00 AM 20.22 68.396 0.193 6.71 1.45 2.94
8/18/2022 5:15:00 AM 20.21 68.378 0.193 6.71 1.69 2.93
8/18/2022 5:30:00 AM 20.21 68.378 0.193 6.71 1.53 2.92
8/18/2022 5:45:00 AM 20.19 68.342 0.193 6.7 1.95 2.88
8/18/2022 6:00:00 AM 20.16 68.288 0.193 6.71 1.43 2.87
8/18/2022 6:15:00 AM 20.14 68.252 0.193 6.71 1.5 2.9
8/18/2022 6:30:00 AM 20.13 68.234 0.193 6.71 1.39 2.88
8/18/2022 6:45:00 AM 20.11 68.198 0.194 6.72 1.5 2.83
8/18/2022 7:00:00 AM 20.09 68.162 0.194 6.71 1.64 2.75
8/18/2022 7:15:00 AM 20.07 68.126 0.194 6.72 1.67 2.77
8/18/2022 7:30:00 AM 20.05 68.09 0.194 6.72 1.54 2.85
8/18/2022 7:45:00 AM 20.03 68.054 0.194 6.73 1.76 2.92
8/18/2022 8:00:00 AM 20.01 68.018 0.194 6.73 1.7 2.94
8/18/2022 8:15:00 AM 20 68 0.194 6.74 1.74 2.95
8/18/2022 8:30:00 AM 20 68 0.195 6.74 2.16 2.95
8/18/2022 8:45:00 AM 19.99 67.982 0.195 6.74 2.28 2.92
8/18/2022 9:00:00 AM 20 68 0.195 6.75 1.86 2.95
8/18/2022 9:15:00 AM 20.01 68.018 0.196 6.77 2.01 3.03
8/18/2022 9:30:00 AM 20.02 68.036 0.198 6.84 2.07 3.26
8/18/2022 9:45:00 AM 20.04 68.07201 0.197 6.86 2.16 3.47
8/18/2022 10:00:00 AM 20.08 68.144 0.197 6.84 1.47 3.42
8/18/2022 10:15:00 AM 20.15 68.27 0.197 6.83 1.69 3.31
8/18/2022 10:30:00 AM 20.25 68.45 0.195 6.82 1.39 3.52
8/18/2022 10:45:00 AM 20.35 68.63 0.195 6.81 1.38 3.65
8/18/2022 11:00:00 AM 20.46 68.828 0.194 6.78 1.47 3.52
8/18/2022 11:15:00 AM 20.54 68.972 0.194 6.77 1.46 3.69
8/18/2022 11:30:00 AM 20.66 69.188 0.194 6.78 1.49 3.69
8/18/2022 11:45:00 AM 20.78 69.404 0.196 6.81 1.36 4.02
8/18/2022 12:00:00 PM 20.87 69.566 0.195 6.8 1.82 3.88
8/18/2022 12:15:00 PM 20.98 69.764 0.195 6.78 1.34 3.68
8/18/2022 12:30:00 PM 21.05 69.89 0.196 6.79 1.96 3.98
8/18/2022 12:45:00 PM 21.18 70.124 0.196 6.82 1.53 4.24
8/18/2022 1:00:00 PM 21.27 70.286 0.199 6.98 1.37 5.53
8/18/2022 1:15:00 PM 21.3 70.34 0.198 7.04 1.37 5.55
8/18/2022 1:30:00 PM 21.27 70.286 0.198 7 1.43 5.45
8/18/2022 1:45:00 PM 21.34 70.412 0.198 6.97 1.37 5.2
8/18/2022 2:00:00 PM 21.37 70.466 0.198 7 1.38 5.32
8/18/2022 2:15:00 PM 21.38 70.484 0.198 6.99 1.4 5.47
8/18/2022 2:30:00 PM 21.38 70.484 0.198 6.98 1.43 5.46
8/18/2022 2:45:00 PM 21.32 70.376 0.197 6.96 1.51 5.38
8/18/2022 3:00:00 PM 21.32 70.376 0.197 6.92 1.54 5.03
8/18/2022 3:15:00 PM 21.31 70.358 0.198 6.94 1.61 5.12
8/18/2022 3:30:00 PM 21.32 70.376 0.196 6.91 1.58 5.04
8/18/2022 3:45:00 PM 21.32 70.376 0.195 6.86 1.73 4.84
8/18/2022 4:00:00 PM 21.29 70.32201 0.196 6.86 1.56 4.85
8/18/2022 4:15:00 PM 21.24 70.232 0.196 6.88 2.09 5
8/18/2022 4:30:00 PM 21.18 70.124 0.196 6.83 1.98 4.81
8/18/2022 4:45:00 PM 21.16 70.088 0.195 6.81 2.07 4.56
8/18/2022 5:00:00 PM 21.14 70.052 0.195 6.82 1.95 4.52
8/18/2022 5:15:00 PM 21.13 70.034 0.195 6.82 2.18 4.54
8/18/2022 5:30:00 PM 21.12 70.016 0.196 6.83 1.8 4.59
8/18/2022 5:45:00 PM 21.06 69.908 0.196 6.87 2.09 4.82
8/18/2022 6:00:00 PM 21.03 69.854 0.196 6.88 2.08 4.85
8/18/2022 6:15:00 PM 21.03 69.854 0.196 6.88 1.79 4.8
8/18/2022 6:30:00 PM 21.03 69.854 0.195 6.84 1.8 4.53
8/18/2022 6:45:00 PM 21 69.8 0.196 6.84 1.44 4.32
8/18/2022 7:00:00 PM 20.97 69.746 0.196 6.85 1.49 4.44
8/18/2022 7:15:00 PM 20.9 69.62 0.196 6.86 1.43 4.47
8/18/2022 7:30:00 PM 20.89 69.602 0.197 6.91 1.58 4.58
8/18/2022 7:45:00 PM 20.86 69.548 0.198 6.94 1.7 4.77
8/18/2022 8:00:00 PM 20.81 69.458 0.198 6.95 1.85 4.83
8/18/2022 8:15:00 PM 20.8 69.44 0.198 6.95 1.8 4.79
8/18/2022 8:30:00 PM 20.75 69.35 0.197 6.91 1.8 4.63
8/18/2022 8:45:00 PM 20.73 69.314 0.197 6.89 1.72 4.49
8/18/2022 9:00:00 PM 20.73 69.314 0.197 6.89 1.76 4.35
8/18/2022 9:15:00 PM 20.7 69.26 0.195 6.82 1.6 3.84
8/18/2022 9:30:00 PM 20.67 69.206 0.195 6.8 1.55 3.56
8/18/2022 9:45:00 PM 20.65 69.17 0.195 6.79 1.59 3.42
8/18/2022 10:00:00 PM 20.62 69.116 0.195 6.76 2.39 3.25
8/18/2022 10:15:00 PM 20.6 69.08 0.194 6.75 1.59 3.13
8/18/2022 10:30:00 PM 20.59 69.062 0.195 6.74 1.29 3.07
8/18/2022 10:45:00 PM 20.58 69.044 0.195 6.74 1.27 3.03
8/18/2022 11:00:00 PM 20.57 69.026 0.195 6.74 1.42 3.04
8/18/2022 11:15:00 PM 20.56 69.008 0.195 6.75 1.26 3.03
8/18/2022 11:30:00 PM 20.56 69.008 0.195 6.75 1.2 3.02
8/18/2022 11:45:00 PM 20.55 68.99 0.195 6.75 1.2 3.03
8/19/2022 12:00:00 AM 20.54 68.972 0.195 6.75 1.19 3.01
8/19/2022 12:15:00 AM 20.52 68.936 0.195 6.75 1.26 2.98
8/19/2022 12:30:00 AM 20.52 68.936 0.195 6.75 1.21 2.98
8/19/2022 12:45:00 AM 20.51 68.918 0.195 6.75 1.2 2.97
8/19/2022 1:00:00 AM 20.5 68.9 0.195 6.75 1.21 2.99
8/19/2022 1:15:00 AM 20.49 68.882 0.195 6.75 1.22 2.98
8/19/2022 1:30:00 AM 20.48 68.864 0.195 6.76 1.18 3.04
8/19/2022 1:45:00 AM 20.47 68.846 0.195 6.75 1.2 2.99
8/19/2022 2:00:00 AM 20.45 68.81 0.195 6.75 1.3 2.96
8/19/2022 2:15:00 AM 20.43 68.774 0.195 6.75 1.22 2.97
8/19/2022 2:30:00 AM 20.42 68.756 0.195 6.76 1.27 2.98
8/19/2022 2:45:00 AM 20.4 68.72 0.195 6.76 1.37 3.02
8/19/2022 3:00:00 AM 20.39 68.702 0.195 6.76 1.24 3.05
8/19/2022 3:15:00 AM 20.38 68.684 0.195 6.76 1.21 3.07
8/19/2022 3:30:00 AM 20.37 68.666 0.195 6.76 1.28 3.09
8/19/2022 3:45:00 AM 20.35 68.63 0.195 6.76 1.23 3.09
8/19/2022 4:00:00 AM 20.33 68.594 0.195 6.76 1.3 3.09
8/19/2022 4:15:00 AM 20.32 68.576 0.195 6.76 1.38 3.08
8/19/2022 4:30:00 AM 20.3 68.54 0.195 6.77 1.35 3.14
8/19/2022 4:45:00 AM 20.29 68.522 0.195 6.77 1.27 3.18
8/19/2022 5:00:00 AM 20.27 68.486 0.194 6.76 1.33 3.13
8/19/2022 5:15:00 AM 20.25 68.45 0.195 6.78 1.35 3.2
8/19/2022 5:30:00 AM 20.23 68.414 0.194 6.76 1.26 3.18
8/19/2022 5:45:00 AM 20.21 68.378 0.194 6.75 1.65 3.08
8/19/2022 6:00:00 AM 20.19 68.342 0.194 6.75 1.41 3.01
8/19/2022 6:15:00 AM 20.17 68.306 0.194 6.75 2.08 3.04
8/19/2022 6:30:00 AM 20.15 68.27 0.194 6.75 1.54 3.1
8/19/2022 6:45:00 AM 20.13 68.234 0.194 6.74 1.55 2.95
8/19/2022 7:00:00 AM 20.11 68.198 0.193 6.73 1.43 2.95
8/19/2022 7:15:00 AM 20.1 68.18 0.193 6.73 1.47 2.99
8/19/2022 7:30:00 AM 20.08 68.144 0.193 6.73 1.41 2.95
8/19/2022 7:45:00 AM 20.07 68.126 0.193 6.72 1.3 2.91
8/19/2022 8:00:00 AM 20.06 68.108 0.193 6.72 1.54 2.99
8/19/2022 8:15:00 AM 20.04 68.07201 0.193 6.74 1.73 3.14
8/19/2022 8:30:00 AM 20.03 68.054 0.194 6.74 2.59 2.95
8/19/2022 8:45:00 AM 20.02 68.036 0.194 6.74 2.24 2.81
8/19/2022 9:00:00 AM 20.03 68.054 0.195 6.77 1.91 3.04
8/19/2022 9:15:00 AM 20.05 68.09 0.198 6.87 2.04 3.48
8/19/2022 9:30:00 AM 20.06 68.108 0.199 6.9 1.97 3.78
8/19/2022 9:45:00 AM 20.08 68.144 0.199 6.91 1.6 3.88
8/19/2022 10:00:00 AM 20.13 68.234 0.198 6.91 1.99 3.85
8/19/2022 10:15:00 AM 20.19 68.342 0.197 6.87 2.14 3.8
8/19/2022 10:30:00 AM 20.31 68.558 0.197 6.86 1.6 3.54
8/19/2022 10:45:00 AM 20.37 68.666 0.196 6.85 1.55 3.57
8/19/2022 11:00:00 AM 20.52 68.936 0.195 6.81 1.41 3.8
8/19/2022 11:15:00 AM 20.59 69.062 0.194 6.81 1.48 3.88
8/19/2022 11:30:00 AM 20.67 69.206 0.194 6.79 1.45 4.08
8/19/2022 11:45:00 AM 20.8 69.44 0.194 6.77 1.37 4.03
8/19/2022 12:00:00 PM 20.85 69.53 0.193 6.75 1.4 3.87
8/19/2022 12:15:00 PM 20.89 69.602 0.193 6.75 1.4 3.84
8/19/2022 12:30:00 PM 20.97 69.746 0.194 6.76 1.42 3.87
8/19/2022 12:45:00 PM 21.01 69.818 0.197 6.82 1.54 4.46
8/19/2022 1:00:00 PM 21.11 69.998 0.195 6.83 1.4 4.12
8/19/2022 1:15:00 PM 21.13 70.034 0.196 6.84 1.42 4.17
8/19/2022 1:30:00 PM 21.14 70.052 0.196 6.85 1.47 4.42
8/19/2022 1:45:00 PM 21.14 70.052 0.198 6.92 1.39 5.01
8/19/2022 2:00:00 PM 21.16 70.088 0.197 6.93 1.6 5.04
8/19/2022 2:15:00 PM 21.23 70.214 0.196 6.88 1.53 4.62
8/19/2022 2:30:00 PM 21.3 70.34 0.195 6.85 1.36 4.46
8/19/2022 2:45:00 PM 21.29 70.32201 0.195 6.82 2.44 4.44
8/19/2022 3:00:00 PM 21.24 70.232 0.195 6.83 1.5 4.31
8/19/2022 3:15:00 PM 21.23 70.214 0.196 6.83 1.65 4.42
8/19/2022 3:30:00 PM 21.26 70.268 0.196 6.83 1.81 4.41
8/19/2022 3:45:00 PM 21.19 70.142 0.197 6.89 1.62 4.83
8/19/2022 4:00:00 PM 21.18 70.124 0.196 6.85 1.66 4.79
8/19/2022 4:15:00 PM 21.21 70.17799 0.195 6.82 1.64 4.4
8/19/2022 4:30:00 PM 21.11 69.998 0.195 6.79 1.5 4.38
8/19/2022 4:45:00 PM 21.11 69.998 0.195 6.79 1.86 4.34
8/19/2022 5:00:00 PM 21.07 69.926 0.195 6.77 1.68 4.06
8/19/2022 5:15:00 PM 21.04 69.872 0.194 6.74 1.92 3.75
8/19/2022 5:30:00 PM 21 69.8 0.195 6.79 1.55 4.1
8/19/2022 5:45:00 PM 21.03 69.854 0.196 6.81 2.04 4.22
8/19/2022 6:00:00 PM 21.02 69.836 0.196 6.84 1.96 4.42
8/19/2022 6:15:00 PM 21.02 69.836 0.196 6.84 1.98 4.43
8/19/2022 6:30:00 PM 21.01 69.818 0.196 6.85 1.71 4.55
8/19/2022 6:45:00 PM 21.03 69.854 0.196 6.83 1.96 4.41
8/19/2022 7:00:00 PM 20.97 69.746 0.196 6.84 1.81 4.28
8/19/2022 7:15:00 PM 20.94 69.692 0.197 6.9 1.68 4.58
8/19/2022 7:30:00 PM 20.9 69.62 0.198 6.94 1.6 4.79
8/19/2022 7:45:00 PM 20.87 69.566 0.197 6.89 1.53 4.78
8/19/2022 8:00:00 PM 20.82 69.476 0.195 6.83 1.65 4.49
8/19/2022 8:15:00 PM 20.8 69.44 0.196 6.86 1.83 4.48
8/19/2022 8:30:00 PM 20.78 69.404 0.197 6.91 1.73 4.55
8/19/2022 8:45:00 PM 20.73 69.314 0.198 6.95 1.87 4.65
8/19/2022 9:00:00 PM 20.73 69.314 0.197 6.9 1.65 4.32
8/19/2022 9:15:00 PM 20.71 69.278 0.197 6.87 1.55 4.17
8/19/2022 9:30:00 PM 20.68 69.224 0.198 6.92 1.53 4.14
8/19/2022 9:45:00 PM 20.67 69.206 0.199 6.96 1.44 4.08
8/19/2022 10:00:00 PM 20.66 69.188 0.197 6.91 1.3 3.72
8/19/2022 10:15:00 PM 20.66 69.188 0.197 6.87 1.29 3.52
8/19/2022 10:30:00 PM 20.66 69.188 0.197 6.85 1.36 3.42
8/19/2022 10:45:00 PM 20.66 69.188 0.197 6.85 1.26 3.38
8/19/2022 11:00:00 PM 20.65 69.17 0.197 6.85 1.34 3.36
8/19/2022 11:15:00 PM 20.64 69.152 0.198 6.87 1.31 3.39
8/19/2022 11:30:00 PM 20.63 69.134 0.198 6.87 1.28 3.41
8/19/2022 11:45:00 PM 20.63 69.134 0.197 6.86 1.27 3.32
8/20/2022 12:00:00 AM 20.62 69.116 0.197 6.84 1.25 3.24
8/20/2022 12:15:00 AM 20.62 69.116 0.197 6.83 1.34 3.12
8/20/2022 12:30:00 AM 20.6 69.08 0.197 6.82 1.25 3.11
8/20/2022 12:45:00 AM 20.59 69.062 0.197 6.82 1.3 3.11
8/20/2022 1:00:00 AM 20.59 69.062 0.197 6.81 1.22 3.08
8/20/2022 1:15:00 AM 20.57 69.026 0.197 6.81 1.23 3.07
8/20/2022 1:30:00 AM 20.57 69.026 0.197 6.81 1.26 3.08
8/20/2022 1:45:00 AM 20.56 69.008 0.197 6.81 1.25 3.06
8/20/2022 2:00:00 AM 20.56 69.008 0.196 6.8 1.17 3.04
8/20/2022 2:15:00 AM 20.55 68.99 0.196 6.8 1.23 3.02
8/20/2022 2:30:00 AM 20.54 68.972 0.196 6.8 1.23 3.03
8/20/2022 2:45:00 AM 20.52 68.936 0.196 6.8 1.2 3.02
8/20/2022 3:00:00 AM 20.51 68.918 0.196 6.8 1.19 3.02
8/20/2022 3:15:00 AM 20.5 68.9 0.196 6.8 1.18 3.01
8/20/2022 3:30:00 AM 20.48 68.864 0.196 6.79 1.2 3
8/20/2022 3:45:00 AM 20.46 68.828 0.196 6.79 1.24 3.03
8/20/2022 4:00:00 AM 20.44 68.792 0.196 6.79 1.18 3.04
8/20/2022 4:15:00 AM 20.43 68.774 0.196 6.79 1.53 3.05
8/20/2022 4:30:00 AM 20.43 68.774 0.196 6.79 1.35 3.02
8/20/2022 4:45:00 AM 20.43 68.774 0.196 6.78 1.26 2.98
8/20/2022 5:00:00 AM 20.43 68.774 0.195 6.77 1.2 2.95
8/20/2022 5:15:00 AM 20.43 68.774 0.195 6.76 1.27 2.9
8/20/2022 5:30:00 AM 20.43 68.774 0.195 6.75 1.73 2.87
8/20/2022 5:45:00 AM 20.43 68.774 0.195 6.74 1.99 2.72
8/20/2022 6:00:00 AM 20.44 68.792 0.195 6.73 1.15 2.58
8/20/2022 6:15:00 AM 20.43 68.774 0.194 6.73 1.14 2.6
8/20/2022 6:30:00 AM 20.42 68.756 0.194 6.72 1.14 2.64
8/20/2022 6:45:00 AM 20.4 68.72 0.194 6.73 1.29 2.77
8/20/2022 7:00:00 AM 20.38 68.684 0.194 6.73 1.16 2.81
8/20/2022 7:15:00 AM 20.36 68.648 0.194 6.73 1.19 2.78
8/20/2022 7:30:00 AM 20.36 68.648 0.194 6.73 1.28 2.8
8/20/2022 7:45:00 AM 20.35 68.63 0.194 6.73 1.22 2.85
8/20/2022 8:00:00 AM 20.35 68.63 0.194 6.72 2.49 2.68
8/20/2022 8:15:00 AM 20.36 68.648 0.194 6.72 1.18 2.51
8/20/2022 8:30:00 AM 20.36 68.648 0.194 6.72 1.26 2.71
8/20/2022 8:45:00 AM 20.36 68.648 0.195 6.75 1.63 2.81
8/20/2022 9:00:00 AM 20.37 68.666 0.197 6.78 1.58 2.9
8/20/2022 9:15:00 AM 20.37 68.666 0.196 6.79 1.43 3.07
8/20/2022 9:30:00 AM 20.39 68.702 0.196 6.8 1.37 3.26
8/20/2022 9:45:00 AM 20.41 68.738 0.196 6.81 1.37 3.31
8/20/2022 10:00:00 AM 20.5 68.9 0.196 6.79 1.29 3.05
8/20/2022 10:15:00 AM 20.58 69.044 0.195 6.78 1.28 3.11
8/20/2022 10:30:00 AM 20.63 69.134 0.194 6.76 1.2 3.05
8/20/2022 10:45:00 AM 20.74 69.332 0.193 6.74 1.44 3.38
8/20/2022 11:00:00 AM 20.73 69.314 0.195 6.77 1.26 3.65
8/20/2022 11:15:00 AM 20.75 69.35 0.195 6.8 1.31 3.87
8/20/2022 11:30:00 AM 20.78 69.404 0.194 6.78 1.49 3.9
8/20/2022 11:45:00 AM 20.8 69.44 0.193 6.77 1.42 3.86
8/20/2022 12:00:00 PM 20.88 69.584 0.193 6.74 1.28 3.7
8/20/2022 12:15:00 PM 20.92 69.656 0.193 6.73 1.22 3.63
8/20/2022 12:30:00 PM 20.96 69.728 0.194 6.73 1.24 3.66
8/20/2022 12:45:00 PM 21.03 69.854 0.193 6.73 1.33 3.65
8/20/2022 1:00:00 PM 21.19 70.142 0.192 6.7 1.22 3.5
8/20/2022 1:15:00 PM 21.14 70.052 0.193 6.72 1.24 3.56
8/20/2022 1:30:00 PM 21.23 70.214 0.193 6.71 1.25 3.67
8/20/2022 1:45:00 PM 21.22 70.196 0.194 6.74 1.46 3.96
8/20/2022 2:00:00 PM 21.25 70.25 0.194 6.76 1.41 4.17
8/20/2022 2:15:00 PM 21.27 70.286 0.194 6.75 1.28 4.1
8/20/2022 2:30:00 PM 21.31 70.358 0.194 6.75 1.43 3.99
8/20/2022 2:45:00 PM 21.33 70.394 0.195 6.79 1.55 4.33
8/20/2022 3:00:00 PM 21.34 70.412 0.195 6.83 1.54 4.59
8/20/2022 3:15:00 PM 21.37 70.466 0.195 6.85 1.56 4.73
8/20/2022 3:30:00 PM 21.35 70.43 0.195 6.82 1.5 4.72
8/20/2022 3:45:00 PM 21.34 70.412 0.195 6.83 1.51 4.66
8/20/2022 4:00:00 PM 21.39 70.502 0.194 6.8 1.5 4.62
8/20/2022 4:15:00 PM 21.29 70.32201 0.194 6.78 1.44 4.57
8/20/2022 4:30:00 PM 21.32 70.376 0.194 6.77 2.15 4.46
8/20/2022 4:45:00 PM 21.33 70.394 0.194 6.76 1.33 4.35
8/20/2022 5:00:00 PM 21.33 70.394 0.193 6.74 1.37 4.22
8/20/2022 5:15:00 PM 21.31 70.358 0.193 6.75 1.42 4.28
8/20/2022 5:30:00 PM 21.29 70.32201 0.193 6.75 1.35 4.34
8/20/2022 5:45:00 PM 21.27 70.286 0.192 6.73 1.32 4.07
8/20/2022 6:00:00 PM 21.28 70.304 0.193 6.71 1.26 3.75
8/20/2022 6:15:00 PM 21.29 70.32201 0.194 6.73 1.35 3.97
8/20/2022 6:30:00 PM 21.26 70.268 0.195 6.77 1.46 4.29
8/20/2022 6:45:00 PM 21.2 70.16 0.194 6.78 1.44 4.36
8/20/2022 7:00:00 PM 21.19 70.142 0.195 6.79 1.36 4.31
8/20/2022 7:15:00 PM 21.18 70.124 0.194 6.76 1.35 4.16
8/20/2022 7:30:00 PM 21.14 70.052 0.194 6.74 1.31 3.82
8/20/2022 7:45:00 PM 21.12 70.016 0.194 6.74 1.28 3.69
8/20/2022 8:00:00 PM 21.12 70.016 0.194 6.73 1.68 3.63
8/20/2022 8:15:00 PM 21.11 69.998 0.193 6.72 1.27 3.56
8/20/2022 8:30:00 PM 21.11 69.998 0.194 6.73 1.4 3.46
8/20/2022 8:45:00 PM 21.1 69.98 0.194 6.74 1.25 3.41
8/20/2022 9:00:00 PM 21.1 69.98 0.195 6.77 1.3 3.43
8/20/2022 9:15:00 PM 21.08 69.944 0.196 6.8 1.45 3.46
8/20/2022 9:30:00 PM 21.07 69.926 0.196 6.79 1.33 3.42
8/20/2022 9:45:00 PM 21.06 69.908 0.197 6.81 1.36 3.39
8/20/2022 10:00:00 PM 21.05 69.89 0.197 6.82 1.46 3.38
8/20/2022 10:15:00 PM 21.04 69.872 0.196 6.79 1.41 3.18
8/20/2022 10:30:00 PM 21.04 69.872 0.196 6.79 1.3 3.09
8/20/2022 10:45:00 PM 21.03 69.854 0.196 6.78 1.78 3.01
8/20/2022 11:00:00 PM 21.03 69.854 0.196 6.77 1.32 2.95
8/20/2022 11:15:00 PM 21.02 69.836 0.196 6.76 1.38 2.9
8/20/2022 11:30:00 PM 21.02 69.836 0.196 6.75 1.25 2.82
8/20/2022 11:45:00 PM 21.02 69.836 0.195 6.75 1.27 2.76
8/21/2022 12:00:00 AM 21.02 69.836 0.195 6.74 1.27 2.72
8/21/2022 12:15:00 AM 21.02 69.836 0.195 6.74 1.22 2.68
8/21/2022 12:30:00 AM 21.01 69.818 0.196 6.74 1.28 2.66
8/21/2022 12:45:00 AM 21.01 69.818 0.195 6.74 1.26 2.63
8/21/2022 1:00:00 AM 21 69.8 0.195 6.73 1.34 2.57
8/21/2022 1:15:00 AM 20.99 69.782 0.195 6.73 1.21 2.53
8/21/2022 1:30:00 AM 20.99 69.782 0.195 6.73 1.21 2.5
8/21/2022 1:45:00 AM 20.98 69.764 0.195 6.73 1.25 2.47
8/21/2022 2:00:00 AM 20.97 69.746 0.195 6.73 1.2 2.46
8/21/2022 2:15:00 AM 20.96 69.728 0.195 6.73 1.22 2.44
8/21/2022 2:30:00 AM 20.95 69.71 0.196 6.73 1.18 2.45
8/21/2022 2:45:00 AM 20.95 69.71 0.196 6.73 1.13 2.42
8/21/2022 3:00:00 AM 20.94 69.692 0.196 6.73 1.18 2.43
8/21/2022 3:15:00 AM 20.93 69.674 0.196 6.73 1.14 2.44
8/21/2022 3:30:00 AM 20.93 69.674 0.196 6.73 1.19 2.42
8/21/2022 3:45:00 AM 20.91 69.638 0.196 6.74 1.19 2.45
8/21/2022 4:00:00 AM 20.91 69.638 0.196 6.74 1.2 2.45
8/21/2022 4:15:00 AM 20.9 69.62 0.196 6.75 1.19 2.46
8/21/2022 4:30:00 AM 20.9 69.62 0.196 6.75 1.26 2.46
8/21/2022 4:45:00 AM 20.9 69.62 0.196 6.75 1.15 2.47
8/21/2022 5:00:00 AM 20.89 69.602 0.197 6.76 1.25 2.46
8/21/2022 5:15:00 AM 20.88 69.584 0.197 6.76 1.14 2.46
8/21/2022 5:30:00 AM 20.87 69.566 0.197 6.76 1.21 2.46
8/21/2022 5:45:00 AM 20.88 69.584 0.197 6.76 1.23 2.46
8/21/2022 6:00:00 AM 20.87 69.566 0.198 6.77 1.34 2.49
8/21/2022 6:15:00 AM 20.86 69.548 0.198 6.79 1.37 2.53
8/21/2022 6:30:00 AM 20.86 69.548 0.198 6.8 1.49 2.57
8/21/2022 6:45:00 AM 20.85 69.53 0.199 6.81 1.57 2.56
8/21/2022 7:00:00 AM 20.83 69.494 0.198 6.8 1.49 2.53
8/21/2022 7:15:00 AM 20.84 69.512 0.199 6.81 1.44 2.58
8/21/2022 7:30:00 AM 20.84 69.512 0.199 6.81 1.82 2.49
8/21/2022 7:45:00 AM 20.82 69.476 0.199 6.81 1.91 2.43
8/21/2022 8:00:00 AM 20.84 69.512 0.199 6.82 1.53 2.52
8/21/2022 8:15:00 AM 20.83 69.494 0.199 6.83 1.51 2.6
8/21/2022 8:30:00 AM 20.86 69.548 0.199 6.84 1.38 2.67
8/21/2022 8:45:00 AM 20.86 69.548 0.199 6.83 1.25 2.68
8/21/2022 9:00:00 AM 20.87 69.566 0.197 6.81 1.18 2.61
8/21/2022 9:15:00 AM 20.89 69.602 0.198 6.79 1.19 2.61
8/21/2022 9:30:00 AM 20.91 69.638 0.198 6.79 1.17 2.65
8/21/2022 9:45:00 AM 20.89 69.602 0.198 6.8 1.41 2.74
8/21/2022 10:00:00 AM 20.91 69.638 0.198 6.8 1.95 2.79
8/21/2022 10:15:00 AM 20.91 69.638 0.198 6.8 1.29 2.8
8/21/2022 10:30:00 AM 20.93 69.674 0.197 6.8 1.36 2.86
8/21/2022 10:45:00 AM 20.95 69.71 0.197 6.8 1.29 2.78
8/21/2022 11:00:00 AM 20.97 69.746 0.197 6.79 1.22 2.93
8/21/2022 11:15:00 AM 21 69.8 0.197 6.79 1.25 3.1
8/21/2022 11:30:00 AM 21.07 69.926 0.197 6.81 2.39 3.34
8/21/2022 11:45:00 AM 21.13 70.034 0.197 6.8 1.26 3.31
8/21/2022 12:00:00 PM 21.14 70.052 0.197 6.8 1.39 3.38
8/21/2022 12:15:00 PM 21.19 70.142 0.196 6.79 1.24 3.6
8/21/2022 12:30:00 PM 21.28 70.304 0.197 6.8 1.25 3.74
8/21/2022 12:45:00 PM 21.27 70.286 0.196 6.79 1.3 3.73
8/21/2022 1:00:00 PM 21.33 70.394 0.195 6.78 1.22 3.89
8/21/2022 1:15:00 PM 21.39 70.502 0.195 6.77 1.72 3.91
8/21/2022 1:30:00 PM 21.5 70.7 0.195 6.77 1.31 3.99
8/21/2022 1:45:00 PM 21.62 70.916 0.196 6.76 1.41 4.08
8/21/2022 2:00:00 PM 21.65 70.97 0.194 6.76 1.33 4.18
8/21/2022 2:15:00 PM 21.63 70.934 0.194 6.77 1.31 4.14
8/21/2022 2:30:00 PM 21.61 70.898 0.194 6.76 1.3 4.13
8/21/2022 2:45:00 PM 21.55 70.79 0.196 6.77 1.41 4.15
8/21/2022 3:00:00 PM 21.56 70.808 0.196 6.79 1.36 4.22
8/21/2022 3:15:00 PM 21.53 70.754 0.196 6.82 1.51 4.36
8/21/2022 3:30:00 PM 21.47 70.646 0.196 6.82 1.4 4.36
8/21/2022 3:45:00 PM 21.44 70.592 0.196 6.81 1.56 4.33
8/21/2022 4:00:00 PM 21.45 70.61 0.196 6.8 1.52 4.29
8/21/2022 4:15:00 PM 21.46 70.628 0.196 6.81 1.75 4.25
8/21/2022 4:30:00 PM 21.35 70.43 0.196 6.79 1.51 4.01
8/21/2022 4:45:00 PM 21.3 70.34 0.195 6.77 1.48 3.77
8/21/2022 5:00:00 PM 21.2 70.16 0.196 6.78 1.51 3.55
8/21/2022 5:15:00 PM 21.11 69.998 0.194 6.76 1.52 3.24
8/21/2022 5:30:00 PM 21.1 69.98 0.195 6.72 1.42 3.13
8/21/2022 5:45:00 PM 21.23 70.214 0.196 6.76 1.45 3.59
8/21/2022 6:00:00 PM 21.13 70.034 0.195 6.72 1.44 3.18
8/21/2022 6:15:00 PM 21.15 70.07 0.195 6.72 1.48 3.22
8/21/2022 6:30:00 PM 21.18 70.124 0.195 6.72 1.45 3.23
8/21/2022 6:45:00 PM 21.07 69.926 0.195 6.72 1.49 3.12
8/21/2022 7:00:00 PM 21.06 69.908 0.195 6.72 1.41 3.07
8/21/2022 7:15:00 PM 21.01 69.818 0.195 6.73 1.32 3.09
8/21/2022 7:30:00 PM 20.99 69.782 0.195 6.72 1.42 3.06
8/21/2022 7:45:00 PM 20.95 69.71 0.195 6.73 1.56 3.01
8/21/2022 8:00:00 PM 20.93 69.674 0.195 6.72 1.39 2.95
8/21/2022 8:15:00 PM 20.92 69.656 0.195 6.72 1.35 2.93
8/21/2022 8:30:00 PM 20.89 69.602 0.195 6.72 1.32 2.89
8/21/2022 8:45:00 PM 20.87 69.566 0.195 6.71 1.33 2.85
8/21/2022 9:00:00 PM 20.91 69.638 0.195 6.73 1.51 2.91
8/21/2022 9:15:00 PM 20.85 69.53 0.195 6.71 1.29 2.79
8/21/2022 9:30:00 PM 20.83 69.494 0.195 6.71 1.32 2.74
8/21/2022 9:45:00 PM 20.83 69.494 0.195 6.71 1.27 2.72
8/21/2022 10:00:00 PM 20.82 69.476 0.195 6.71 1.32 2.71
8/21/2022 10:15:00 PM 20.82 69.476 0.195 6.72 1.42 2.66
8/21/2022 10:30:00 PM 20.81 69.458 0.195 6.72 1.26 2.62
8/21/2022 10:45:00 PM 20.8 69.44 0.195 6.72 1.22 2.59
8/21/2022 11:00:00 PM 20.81 69.458 0.195 6.72 1.23 2.58
8/21/2022 11:15:00 PM 20.79 69.422 0.195 6.72 1.36 2.54
8/21/2022 11:30:00 PM 20.79 69.422 0.196 6.73 1.3 2.54
8/21/2022 11:45:00 PM 20.78 69.404 0.195 6.72 1.29 2.53
8/22/2022 12:00:00 AM 20.77 69.386 0.195 6.73 1.29 2.49
8/22/2022 12:15:00 AM 20.79 69.422 0.196 6.73 1.25 2.46
8/22/2022 12:30:00 AM 20.78 69.404 0.196 6.74 1.21 2.46
8/22/2022 12:45:00 AM 20.77 69.386 0.196 6.73 1.2 2.44
8/22/2022 1:00:00 AM 20.77 69.386 0.196 6.73 1.24 2.39
8/22/2022 1:15:00 AM 20.78 69.404 0.197 6.74 1.25 2.38
8/22/2022 1:30:00 AM 20.77 69.386 0.197 6.74 1.35 2.34
8/22/2022 1:45:00 AM 20.76 69.368 0.197 6.74 1.27 2.36
8/22/2022 2:00:00 AM 20.78 69.404 0.198 6.78 1.32 2.53
8/22/2022 2:15:00 AM 20.77 69.386 0.199 6.8 1.18 2.64
8/22/2022 2:30:00 AM 20.75 69.35 0.198 6.77 1.23 2.5
8/22/2022 2:45:00 AM 20.76 69.368 0.199 6.83 1.35 2.7
8/22/2022 3:00:00 AM 20.74 69.332 0.198 6.79 1.33 2.44
8/22/2022 3:15:00 AM 20.74 69.332 0.199 6.83 1.24 2.66
8/22/2022 3:30:00 AM 20.73 69.314 0.199 6.82 1.64 2.67
8/22/2022 3:45:00 AM 20.72 69.296 0.199 6.81 1.34 2.54
8/22/2022 4:00:00 AM 20.71 69.278 0.199 6.83 1.23 2.66
8/22/2022 4:15:00 AM 20.71 69.278 0.2 6.85 1.25 2.81
8/22/2022 4:30:00 AM 20.7 69.26 0.199 6.83 1.23 2.72
8/22/2022 4:45:00 AM 20.69 69.242 0.199 6.84 1.17 2.77
8/22/2022 5:00:00 AM 20.69 69.242 0.199 6.85 1.19 2.86
8/22/2022 5:15:00 AM 20.63 69.134 0.197 6.85 1.45 3.05
8/22/2022 5:30:00 AM 20.6 69.08 0.197 6.88 1.37 3.35
8/22/2022 5:45:00 AM 20.55 68.99 0.196 6.85 3.23 3.31
8/22/2022 6:00:00 AM 20.52 68.936 0.194 6.86 3.42 3.47
8/22/2022 6:15:00 AM 20.51 68.918 0.193 6.85 1.77 3.45
8/22/2022 6:30:00 AM 20.49 68.882 0.191 6.86 2.58 3.71
8/22/2022 6:45:00 AM 20.35 68.63 0.188 6.9 4.88 4.4
8/22/2022 7:00:00 AM 20.16 68.288 0.184 7.01 7.99 5.28
8/22/2022 7:15:00 AM 20.01 68.018 0.182 7.11 7.6 6.17
8/22/2022 7:30:00 AM 19.9 67.82 0.18 7.18 14.11 6.51
8/22/2022 7:45:00 AM 19.84 67.712 0.177 7.22 27 6.68
8/22/2022 8:00:00 AM 19.8 67.64 0.174 7.24 47.26 6.8
8/22/2022 8:15:00 AM 19.78 67.604 0.172 7.24 62.02 6.85
8/22/2022 8:30:00 AM 19.79 67.622 0.17 7.25 71.16 6.88
8/22/2022 8:45:00 AM 19.82 67.676 0.168 7.25 77.71 6.9
8/22/2022 9:00:00 AM 19.81 67.658 0.167 7.23 76.66 6.82
8/22/2022 9:15:00 AM 19.84 67.712 0.166 7.23 76.76 6.78
8/22/2022 9:30:00 AM 19.87 67.766 0.165 7.22 68.86 6.71
8/22/2022 9:45:00 AM 19.92 67.856 0.164 7.2 61.21 6.66
8/22/2022 10:00:00 AM 19.96 67.92799 0.164 7.18 57.39 6.66
8/22/2022 10:15:00 AM 20.01 68.018 0.163 7.18 46.65 6.63
8/22/2022 10:30:00 AM 20.09 68.162 0.163 7.18 39.95 6.79
8/22/2022 10:45:00 AM 20.26 68.468 0.163 7.19 33.6 6.98

These are provisional data and have not been subject to a quality assurance process, but rather are the raw data reported by the instrument.
H: value is above sensor operating range
L: value is below sensor operating range
Offline: station is not reporting data
NC: parameter is not collected at site

Data Availability & Limitations

Uncertainty and potential for error can be associated with environmental monitoring data. Provisional data have not been subject to a quality assurance process, but rather are the raw data reported by the instrument. Data users are cautioned to consider carefully the provisional nature of the information before using it for decisions that concern personal or public safety or the conduct of business that involves substantial monetary or operational consequences.

Approved data are currently available by request by emailing: srbc@srbc.net. Approved data have been subject to a quality assurance process to correct for equipment or fouling drift. Data recorded during equipment malfunctions have been removed.

View Historical Stations that have been discontinued.